<?xml version="1.0" encoding="UTF-8" standalone="no" ?>
<gpx xmlns="http://www.topografix.com/GPX/1/1" xmlns:xsi="http://www.w3.org/2001/XMLSchema-instance" xsi:schemaLocation="http://www.topografix.com/GPX/1/1 http://www.topografix.com/GPX/1/1/gpx.xsd" version="1.1" creator="VisuGPX - https://www.visugpx.com">
  <metadata>
    <name>2016 06 05 kayak morbihan</name>
    <desc><![CDATA[pique nique couché de soleil, par le tour de l'ile îlur]]></desc>
  </metadata>
  <trk>
    <name><![CDATA[05/07/2016 19:16:57 UTC]]></name>
    <trkseg>
      <trkpt lat="47.55341" lon="-2.81148">
        <ele>0.79998779296875</ele>
        <time>2016-07-05T17:16:57Z</time>
      </trkpt>
      <trkpt lat="47.55346" lon="-2.81154">
        <ele>0.79998779296875</ele>
        <time>2016-07-05T17:17:05Z</time>
      </trkpt>
      <trkpt lat="47.55388" lon="-2.81135">
        <ele>0.79998779296875</ele>
        <time>2016-07-05T17:18:16Z</time>
      </trkpt>
      <trkpt lat="47.55405" lon="-2.81144">
        <ele>0.79998779296875</ele>
        <time>2016-07-05T17:18:29Z</time>
      </trkpt>
      <trkpt lat="47.55421" lon="-2.81153">
        <ele>0.20001220703125</ele>
        <time>2016-07-05T17:18:42Z</time>
      </trkpt>
      <trkpt lat="47.55439" lon="-2.8116">
        <ele>0.79998779296875</ele>
        <time>2016-07-05T17:18:55Z</time>
      </trkpt>
      <trkpt lat="47.55455" lon="-2.81172">
        <ele>0.20001220703125</ele>
        <time>2016-07-05T17:19:08Z</time>
      </trkpt>
      <trkpt lat="47.5547" lon="-2.8118">
        <ele>0.79998779296875</ele>
        <time>2016-07-05T17:19:21Z</time>
      </trkpt>
      <trkpt lat="47.55481" lon="-2.81184">
        <ele>0.60000610351562</ele>
        <time>2016-07-05T17:19:34Z</time>
      </trkpt>
      <trkpt lat="47.55491" lon="-2.81187">
        <ele>0.79998779296875</ele>
        <time>2016-07-05T17:19:49Z</time>
      </trkpt>
      <trkpt lat="47.55499" lon="-2.81188">
        <ele>1.2000122070312</ele>
        <time>2016-07-05T17:20:05Z</time>
      </trkpt>
      <trkpt lat="47.55507" lon="-2.81192">
        <ele>1.2000122070312</ele>
        <time>2016-07-05T17:20:16Z</time>
      </trkpt>
      <trkpt lat="47.55517" lon="-2.81195">
        <ele>1.2000122070312</ele>
        <time>2016-07-05T17:20:26Z</time>
      </trkpt>
      <trkpt lat="47.55531" lon="-2.81201">
        <ele>1.2000122070312</ele>
        <time>2016-07-05T17:20:38Z</time>
      </trkpt>
      <trkpt lat="47.55547" lon="-2.81206">
        <ele>1</ele>
        <time>2016-07-05T17:20:50Z</time>
      </trkpt>
      <trkpt lat="47.55562" lon="-2.81208">
        <ele>1</ele>
        <time>2016-07-05T17:21:01Z</time>
      </trkpt>
      <trkpt lat="47.55577" lon="-2.8121">
        <ele>1</ele>
        <time>2016-07-05T17:21:11Z</time>
      </trkpt>
      <trkpt lat="47.55596" lon="-2.81214">
        <ele>1.2000122070312</ele>
        <time>2016-07-05T17:21:25Z</time>
      </trkpt>
      <trkpt lat="47.55614" lon="-2.81218">
        <ele>1</ele>
        <time>2016-07-05T17:21:38Z</time>
      </trkpt>
      <trkpt lat="47.55626" lon="-2.81221">
        <ele>0.79998779296875</ele>
        <time>2016-07-05T17:21:48Z</time>
      </trkpt>
      <trkpt lat="47.55633" lon="-2.81229">
        <ele>0.79998779296875</ele>
        <time>2016-07-05T17:21:57Z</time>
      </trkpt>
      <trkpt lat="47.55636" lon="-2.81243">
        <ele>0.60000610351562</ele>
        <time>2016-07-05T17:22:07Z</time>
      </trkpt>
      <trkpt lat="47.55644" lon="-2.81246">
        <ele>0.79998779296875</ele>
        <time>2016-07-05T17:22:16Z</time>
      </trkpt>
      <trkpt lat="47.55658" lon="-2.81247">
        <ele>0.39999389648438</ele>
        <time>2016-07-05T17:22:29Z</time>
      </trkpt>
      <trkpt lat="47.5567" lon="-2.81253">
        <ele>0.20001220703125</ele>
        <time>2016-07-05T17:22:40Z</time>
      </trkpt>
      <trkpt lat="47.55681" lon="-2.81257">
        <ele>0.39999389648438</ele>
        <time>2016-07-05T17:22:49Z</time>
      </trkpt>
      <trkpt lat="47.55696" lon="-2.81262">
        <ele>1</ele>
        <time>2016-07-05T17:23:00Z</time>
      </trkpt>
      <trkpt lat="47.5571" lon="-2.81266">
        <ele>0.60000610351562</ele>
        <time>2016-07-05T17:23:10Z</time>
      </trkpt>
      <trkpt lat="47.55724" lon="-2.81267">
        <ele>1</ele>
        <time>2016-07-05T17:23:20Z</time>
      </trkpt>
      <trkpt lat="47.55739" lon="-2.81268">
        <ele>0.79998779296875</ele>
        <time>2016-07-05T17:23:30Z</time>
      </trkpt>
      <trkpt lat="47.55762" lon="-2.81274">
        <ele>0.60000610351562</ele>
        <time>2016-07-05T17:23:46Z</time>
      </trkpt>
      <trkpt lat="47.55778" lon="-2.81279">
        <ele>1</ele>
        <time>2016-07-05T17:23:57Z</time>
      </trkpt>
      <trkpt lat="47.55794" lon="-2.81284">
        <ele>0.79998779296875</ele>
        <time>2016-07-05T17:24:10Z</time>
      </trkpt>
      <trkpt lat="47.55802" lon="-2.81283">
        <ele>1.2000122070312</ele>
        <time>2016-07-05T17:24:21Z</time>
      </trkpt>
      <trkpt lat="47.55809" lon="-2.81285">
        <ele>1</ele>
        <time>2016-07-05T17:24:31Z</time>
      </trkpt>
      <trkpt lat="47.55816" lon="-2.81292">
        <ele>0.60000610351562</ele>
        <time>2016-07-05T17:24:40Z</time>
      </trkpt>
      <trkpt lat="47.55823" lon="-2.813">
        <ele>0.20001220703125</ele>
        <time>2016-07-05T17:24:51Z</time>
      </trkpt>
      <trkpt lat="47.55828" lon="-2.81306">
        <ele>-0.20001220703125</ele>
        <time>2016-07-05T17:24:59Z</time>
      </trkpt>
      <trkpt lat="47.55831" lon="-2.81308">
        <ele>-0.20001220703125</ele>
        <time>2016-07-05T17:25:03Z</time>
      </trkpt>
      <trkpt lat="47.55838" lon="-2.81311">
        <ele>0.20001220703125</ele>
        <time>2016-07-05T17:25:15Z</time>
      </trkpt>
      <trkpt lat="47.55859" lon="-2.813">
        <ele>0.60000610351562</ele>
        <time>2016-07-05T17:26:02Z</time>
      </trkpt>
      <trkpt lat="47.55864" lon="-2.81299">
        <ele>1</ele>
        <time>2016-07-05T17:26:06Z</time>
      </trkpt>
      <trkpt lat="47.55877" lon="-2.81301">
        <ele>1.2000122070312</ele>
        <time>2016-07-05T17:26:17Z</time>
      </trkpt>
      <trkpt lat="47.55892" lon="-2.81301">
        <ele>1.2000122070312</ele>
        <time>2016-07-05T17:26:27Z</time>
      </trkpt>
      <trkpt lat="47.55902" lon="-2.81297">
        <ele>1.3999938964844</ele>
        <time>2016-07-05T17:26:34Z</time>
      </trkpt>
      <trkpt lat="47.55914" lon="-2.81296">
        <ele>1.6000061035156</ele>
        <time>2016-07-05T17:26:42Z</time>
      </trkpt>
      <trkpt lat="47.5593" lon="-2.81301">
        <ele>1.3999938964844</ele>
        <time>2016-07-05T17:26:53Z</time>
      </trkpt>
      <trkpt lat="47.55943" lon="-2.81302">
        <ele>1.3999938964844</ele>
        <time>2016-07-05T17:27:02Z</time>
      </trkpt>
      <trkpt lat="47.55956" lon="-2.81305">
        <ele>1.3999938964844</ele>
        <time>2016-07-05T17:27:11Z</time>
      </trkpt>
      <trkpt lat="47.5597" lon="-2.81309">
        <ele>1.6000061035156</ele>
        <time>2016-07-05T17:27:21Z</time>
      </trkpt>
      <trkpt lat="47.55983" lon="-2.81309">
        <ele>1.7999877929688</ele>
        <time>2016-07-05T17:27:30Z</time>
      </trkpt>
      <trkpt lat="47.55988" lon="-2.81307">
        <ele>2</ele>
        <time>2016-07-05T17:27:34Z</time>
      </trkpt>
      <trkpt lat="47.55996" lon="-2.81304">
        <ele>2</ele>
        <time>2016-07-05T17:27:40Z</time>
      </trkpt>
      <trkpt lat="47.56004" lon="-2.813">
        <ele>2</ele>
        <time>2016-07-05T17:27:47Z</time>
      </trkpt>
      <trkpt lat="47.56012" lon="-2.81296">
        <ele>2</ele>
        <time>2016-07-05T17:27:56Z</time>
      </trkpt>
      <trkpt lat="47.56024" lon="-2.81295">
        <ele>2</ele>
        <time>2016-07-05T17:28:06Z</time>
      </trkpt>
      <trkpt lat="47.56036" lon="-2.81291">
        <ele>2</ele>
        <time>2016-07-05T17:28:15Z</time>
      </trkpt>
      <trkpt lat="47.5605" lon="-2.81283">
        <ele>1.6000061035156</ele>
        <time>2016-07-05T17:28:26Z</time>
      </trkpt>
      <trkpt lat="47.56061" lon="-2.81276">
        <ele>1</ele>
        <time>2016-07-05T17:28:34Z</time>
      </trkpt>
      <trkpt lat="47.56065" lon="-2.81274">
        <ele>1.2000122070312</ele>
        <time>2016-07-05T17:28:37Z</time>
      </trkpt>
      <trkpt lat="47.56079" lon="-2.81269">
        <ele>1.6000061035156</ele>
        <time>2016-07-05T17:28:48Z</time>
      </trkpt>
      <trkpt lat="47.5609" lon="-2.8126">
        <ele>1.3999938964844</ele>
        <time>2016-07-05T17:28:57Z</time>
      </trkpt>
      <trkpt lat="47.56099" lon="-2.81252">
        <ele>1.2000122070312</ele>
        <time>2016-07-05T17:29:06Z</time>
      </trkpt>
      <trkpt lat="47.5611" lon="-2.8125">
        <ele>0.79998779296875</ele>
        <time>2016-07-05T17:29:15Z</time>
      </trkpt>
      <trkpt lat="47.56123" lon="-2.81244">
        <ele>0.79998779296875</ele>
        <time>2016-07-05T17:29:26Z</time>
      </trkpt>
      <trkpt lat="47.56139" lon="-2.81237">
        <ele>1</ele>
        <time>2016-07-05T17:29:39Z</time>
      </trkpt>
      <trkpt lat="47.56145" lon="-2.81239">
        <ele>1.2000122070312</ele>
        <time>2016-07-05T17:29:47Z</time>
      </trkpt>
      <trkpt lat="47.56144" lon="-2.81245">
        <ele>1.3999938964844</ele>
        <time>2016-07-05T17:29:52Z</time>
      </trkpt>
      <trkpt lat="47.56143" lon="-2.81246">
        <ele>1.6000061035156</ele>
        <time>2016-07-05T17:29:54Z</time>
      </trkpt>
      <trkpt lat="47.56141" lon="-2.81247">
        <ele>1.3999938964844</ele>
        <time>2016-07-05T17:29:56Z</time>
      </trkpt>
      <trkpt lat="47.56132" lon="-2.81249">
        <ele>1.2000122070312</ele>
        <time>2016-07-05T17:30:03Z</time>
      </trkpt>
      <trkpt lat="47.56121" lon="-2.81242">
        <ele>1</ele>
        <time>2016-07-05T17:30:12Z</time>
      </trkpt>
      <trkpt lat="47.56114" lon="-2.81227">
        <ele>1</ele>
        <time>2016-07-05T17:30:20Z</time>
      </trkpt>
      <trkpt lat="47.56117" lon="-2.81209">
        <ele>1.6000061035156</ele>
        <time>2016-07-05T17:30:27Z</time>
      </trkpt>
      <trkpt lat="47.56126" lon="-2.81206">
        <ele>1.6000061035156</ele>
        <time>2016-07-05T17:30:33Z</time>
      </trkpt>
      <trkpt lat="47.56144" lon="-2.81207">
        <ele>1.3999938964844</ele>
        <time>2016-07-05T17:30:44Z</time>
      </trkpt>
      <trkpt lat="47.56161" lon="-2.81204">
        <ele>1.3999938964844</ele>
        <time>2016-07-05T17:30:54Z</time>
      </trkpt>
      <trkpt lat="47.5618" lon="-2.81201">
        <ele>1.2000122070312</ele>
        <time>2016-07-05T17:31:05Z</time>
      </trkpt>
      <trkpt lat="47.56197" lon="-2.812">
        <ele>0.79998779296875</ele>
        <time>2016-07-05T17:31:15Z</time>
      </trkpt>
      <trkpt lat="47.56208" lon="-2.81197">
        <ele>0.79998779296875</ele>
        <time>2016-07-05T17:31:24Z</time>
      </trkpt>
      <trkpt lat="47.56217" lon="-2.81187">
        <ele>1.2000122070312</ele>
        <time>2016-07-05T17:31:35Z</time>
      </trkpt>
      <trkpt lat="47.56228" lon="-2.81174">
        <ele>1</ele>
        <time>2016-07-05T17:31:48Z</time>
      </trkpt>
      <trkpt lat="47.56236" lon="-2.81165">
        <ele>0.79998779296875</ele>
        <time>2016-07-05T17:32:00Z</time>
      </trkpt>
      <trkpt lat="47.56242" lon="-2.81161">
        <ele>1</ele>
        <time>2016-07-05T17:32:11Z</time>
      </trkpt>
      <trkpt lat="47.56249" lon="-2.81161">
        <ele>1.3999938964844</ele>
        <time>2016-07-05T17:32:21Z</time>
      </trkpt>
      <trkpt lat="47.56259" lon="-2.8116">
        <ele>1.6000061035156</ele>
        <time>2016-07-05T17:32:31Z</time>
      </trkpt>
      <trkpt lat="47.56273" lon="-2.81151">
        <ele>1.7999877929688</ele>
        <time>2016-07-05T17:32:44Z</time>
      </trkpt>
      <trkpt lat="47.56283" lon="-2.81146">
        <ele>1.7999877929688</ele>
        <time>2016-07-05T17:32:54Z</time>
      </trkpt>
      <trkpt lat="47.56293" lon="-2.81139">
        <ele>1.3999938964844</ele>
        <time>2016-07-05T17:33:07Z</time>
      </trkpt>
      <trkpt lat="47.56302" lon="-2.81133">
        <ele>1</ele>
        <time>2016-07-05T17:33:18Z</time>
      </trkpt>
      <trkpt lat="47.56314" lon="-2.81126">
        <ele>1.3999938964844</ele>
        <time>2016-07-05T17:33:29Z</time>
      </trkpt>
      <trkpt lat="47.56328" lon="-2.8112">
        <ele>1.2000122070312</ele>
        <time>2016-07-05T17:33:40Z</time>
      </trkpt>
      <trkpt lat="47.56337" lon="-2.81119">
        <ele>1</ele>
        <time>2016-07-05T17:33:49Z</time>
      </trkpt>
      <trkpt lat="47.56347" lon="-2.81117">
        <ele>1.7999877929688</ele>
        <time>2016-07-05T17:34:01Z</time>
      </trkpt>
      <trkpt lat="47.56355" lon="-2.81115">
        <ele>2</ele>
        <time>2016-07-05T17:34:09Z</time>
      </trkpt>
      <trkpt lat="47.56358" lon="-2.81113">
        <ele>2.2000122070312</ele>
        <time>2016-07-05T17:34:13Z</time>
      </trkpt>
      <trkpt lat="47.56364" lon="-2.81103">
        <ele>2</ele>
        <time>2016-07-05T17:34:24Z</time>
      </trkpt>
      <trkpt lat="47.56369" lon="-2.81092">
        <ele>1.6000061035156</ele>
        <time>2016-07-05T17:34:36Z</time>
      </trkpt>
      <trkpt lat="47.56374" lon="-2.81079">
        <ele>1.6000061035156</ele>
        <time>2016-07-05T17:34:48Z</time>
      </trkpt>
      <trkpt lat="47.5638" lon="-2.81063">
        <ele>1.6000061035156</ele>
        <time>2016-07-05T17:35:03Z</time>
      </trkpt>
      <trkpt lat="47.56384" lon="-2.81051">
        <ele>1.6000061035156</ele>
        <time>2016-07-05T17:35:14Z</time>
      </trkpt>
      <trkpt lat="47.56389" lon="-2.81038">
        <ele>1.3999938964844</ele>
        <time>2016-07-05T17:35:26Z</time>
      </trkpt>
      <trkpt lat="47.56394" lon="-2.81023">
        <ele>1.6000061035156</ele>
        <time>2016-07-05T17:35:40Z</time>
      </trkpt>
      <trkpt lat="47.564" lon="-2.81012">
        <ele>1.7999877929688</ele>
        <time>2016-07-05T17:35:51Z</time>
      </trkpt>
      <trkpt lat="47.56405" lon="-2.81002">
        <ele>1.6000061035156</ele>
        <time>2016-07-05T17:36:02Z</time>
      </trkpt>
      <trkpt lat="47.56412" lon="-2.80995">
        <ele>1.3999938964844</ele>
        <time>2016-07-05T17:36:12Z</time>
      </trkpt>
      <trkpt lat="47.56422" lon="-2.80987">
        <ele>1.6000061035156</ele>
        <time>2016-07-05T17:36:25Z</time>
      </trkpt>
      <trkpt lat="47.5643" lon="-2.80984">
        <ele>1.3999938964844</ele>
        <time>2016-07-05T17:36:37Z</time>
      </trkpt>
      <trkpt lat="47.56436" lon="-2.80978">
        <ele>1.7999877929688</ele>
        <time>2016-07-05T17:36:50Z</time>
      </trkpt>
      <trkpt lat="47.56442" lon="-2.8097">
        <ele>1.6000061035156</ele>
        <time>2016-07-05T17:37:04Z</time>
      </trkpt>
      <trkpt lat="47.56447" lon="-2.80963">
        <ele>1.2000122070312</ele>
        <time>2016-07-05T17:37:15Z</time>
      </trkpt>
      <trkpt lat="47.56451" lon="-2.80956">
        <ele>1</ele>
        <time>2016-07-05T17:37:25Z</time>
      </trkpt>
      <trkpt lat="47.56454" lon="-2.80952">
        <ele>0.79998779296875</ele>
        <time>2016-07-05T17:37:32Z</time>
      </trkpt>
      <trkpt lat="47.56459" lon="-2.80947">
        <ele>0.60000610351562</ele>
        <time>2016-07-05T17:37:41Z</time>
      </trkpt>
      <trkpt lat="47.56467" lon="-2.80944">
        <ele>0.60000610351562</ele>
        <time>2016-07-05T17:37:49Z</time>
      </trkpt>
      <trkpt lat="47.5648" lon="-2.80942">
        <ele>0.39999389648438</ele>
        <time>2016-07-05T17:37:58Z</time>
      </trkpt>
      <trkpt lat="47.56493" lon="-2.80933">
        <ele>0.79998779296875</ele>
        <time>2016-07-05T17:38:06Z</time>
      </trkpt>
      <trkpt lat="47.56504" lon="-2.80925">
        <ele>1</ele>
        <time>2016-07-05T17:38:13Z</time>
      </trkpt>
      <trkpt lat="47.56515" lon="-2.80917">
        <ele>0.79998779296875</ele>
        <time>2016-07-05T17:38:20Z</time>
      </trkpt>
      <trkpt lat="47.56532" lon="-2.80899">
        <ele>1.2000122070312</ele>
        <time>2016-07-05T17:38:31Z</time>
      </trkpt>
      <trkpt lat="47.56544" lon="-2.80886">
        <ele>1.2000122070312</ele>
        <time>2016-07-05T17:38:39Z</time>
      </trkpt>
      <trkpt lat="47.5656" lon="-2.8087">
        <ele>1.2000122070312</ele>
        <time>2016-07-05T17:38:49Z</time>
      </trkpt>
      <trkpt lat="47.56573" lon="-2.80859">
        <ele>1.6000061035156</ele>
        <time>2016-07-05T17:38:58Z</time>
      </trkpt>
      <trkpt lat="47.56584" lon="-2.80851">
        <ele>1.3999938964844</ele>
        <time>2016-07-05T17:39:05Z</time>
      </trkpt>
      <trkpt lat="47.56596" lon="-2.80842">
        <ele>1.2000122070312</ele>
        <time>2016-07-05T17:39:13Z</time>
      </trkpt>
      <trkpt lat="47.56609" lon="-2.80832">
        <ele>1.3999938964844</ele>
        <time>2016-07-05T17:39:22Z</time>
      </trkpt>
      <trkpt lat="47.56619" lon="-2.80825">
        <ele>1.6000061035156</ele>
        <time>2016-07-05T17:39:29Z</time>
      </trkpt>
      <trkpt lat="47.56629" lon="-2.80816">
        <ele>1.2000122070312</ele>
        <time>2016-07-05T17:39:36Z</time>
      </trkpt>
      <trkpt lat="47.5664" lon="-2.80809">
        <ele>1.3999938964844</ele>
        <time>2016-07-05T17:39:44Z</time>
      </trkpt>
      <trkpt lat="47.56653" lon="-2.80803">
        <ele>1.2000122070312</ele>
        <time>2016-07-05T17:39:53Z</time>
      </trkpt>
      <trkpt lat="47.56663" lon="-2.80795">
        <ele>0.79998779296875</ele>
        <time>2016-07-05T17:40:00Z</time>
      </trkpt>
      <trkpt lat="47.56676" lon="-2.80783">
        <ele>1.2000122070312</ele>
        <time>2016-07-05T17:40:10Z</time>
      </trkpt>
      <trkpt lat="47.56689" lon="-2.80775">
        <ele>1.6000061035156</ele>
        <time>2016-07-05T17:40:19Z</time>
      </trkpt>
      <trkpt lat="47.56702" lon="-2.80771">
        <ele>1.2000122070312</ele>
        <time>2016-07-05T17:40:28Z</time>
      </trkpt>
      <trkpt lat="47.56713" lon="-2.8076">
        <ele>1.2000122070312</ele>
        <time>2016-07-05T17:40:35Z</time>
      </trkpt>
      <trkpt lat="47.56723" lon="-2.80752">
        <ele>1.3999938964844</ele>
        <time>2016-07-05T17:40:42Z</time>
      </trkpt>
      <trkpt lat="47.56735" lon="-2.80739">
        <ele>1.7999877929688</ele>
        <time>2016-07-05T17:40:51Z</time>
      </trkpt>
      <trkpt lat="47.56744" lon="-2.80727">
        <ele>1.7999877929688</ele>
        <time>2016-07-05T17:41:00Z</time>
      </trkpt>
      <trkpt lat="47.56752" lon="-2.80716">
        <ele>1.7999877929688</ele>
        <time>2016-07-05T17:41:09Z</time>
      </trkpt>
      <trkpt lat="47.56754" lon="-2.80714">
        <ele>2</ele>
        <time>2016-07-05T17:41:11Z</time>
      </trkpt>
      <trkpt lat="47.56759" lon="-2.80708">
        <ele>2</ele>
        <time>2016-07-05T17:41:17Z</time>
      </trkpt>
      <trkpt lat="47.56767" lon="-2.807">
        <ele>2</ele>
        <time>2016-07-05T17:41:24Z</time>
      </trkpt>
      <trkpt lat="47.56778" lon="-2.80686">
        <ele>1.7999877929688</ele>
        <time>2016-07-05T17:41:33Z</time>
      </trkpt>
      <trkpt lat="47.56788" lon="-2.80674">
        <ele>1.6000061035156</ele>
        <time>2016-07-05T17:41:41Z</time>
      </trkpt>
      <trkpt lat="47.56798" lon="-2.80658">
        <ele>1.3999938964844</ele>
        <time>2016-07-05T17:41:50Z</time>
      </trkpt>
      <trkpt lat="47.56807" lon="-2.80648">
        <ele>1.2000122070312</ele>
        <time>2016-07-05T17:41:58Z</time>
      </trkpt>
      <trkpt lat="47.5681" lon="-2.80645">
        <ele>0.79998779296875</ele>
        <time>2016-07-05T17:42:01Z</time>
      </trkpt>
      <trkpt lat="47.56816" lon="-2.80638">
        <ele>0.79998779296875</ele>
        <time>2016-07-05T17:42:06Z</time>
      </trkpt>
      <trkpt lat="47.56826" lon="-2.80626">
        <ele>1.2000122070312</ele>
        <time>2016-07-05T17:42:15Z</time>
      </trkpt>
      <trkpt lat="47.56835" lon="-2.80616">
        <ele>1.3999938964844</ele>
        <time>2016-07-05T17:42:22Z</time>
      </trkpt>
      <trkpt lat="47.5685" lon="-2.80597">
        <ele>1.7999877929688</ele>
        <time>2016-07-05T17:42:32Z</time>
      </trkpt>
      <trkpt lat="47.56857" lon="-2.80588">
        <ele>1.7999877929688</ele>
        <time>2016-07-05T17:42:36Z</time>
      </trkpt>
      <trkpt lat="47.56865" lon="-2.80579">
        <ele>1.7999877929688</ele>
        <time>2016-07-05T17:42:40Z</time>
      </trkpt>
      <trkpt lat="47.56875" lon="-2.80571">
        <ele>1.6000061035156</ele>
        <time>2016-07-05T17:42:46Z</time>
      </trkpt>
      <trkpt lat="47.56883" lon="-2.8056">
        <ele>1.7999877929688</ele>
        <time>2016-07-05T17:42:53Z</time>
      </trkpt>
      <trkpt lat="47.5689" lon="-2.8055">
        <ele>2</ele>
        <time>2016-07-05T17:43:01Z</time>
      </trkpt>
      <trkpt lat="47.56898" lon="-2.8054">
        <ele>1.6000061035156</ele>
        <time>2016-07-05T17:43:09Z</time>
      </trkpt>
      <trkpt lat="47.56908" lon="-2.8053">
        <ele>1.3999938964844</ele>
        <time>2016-07-05T17:43:19Z</time>
      </trkpt>
      <trkpt lat="47.56919" lon="-2.80516">
        <ele>1.3999938964844</ele>
        <time>2016-07-05T17:43:29Z</time>
      </trkpt>
      <trkpt lat="47.5693" lon="-2.80503">
        <ele>1.6000061035156</ele>
        <time>2016-07-05T17:43:37Z</time>
      </trkpt>
      <trkpt lat="47.56943" lon="-2.8048">
        <ele>1.3999938964844</ele>
        <time>2016-07-05T17:43:49Z</time>
      </trkpt>
      <trkpt lat="47.56949" lon="-2.80465">
        <ele>1.2000122070312</ele>
        <time>2016-07-05T17:43:56Z</time>
      </trkpt>
      <trkpt lat="47.56955" lon="-2.80453">
        <ele>0.79998779296875</ele>
        <time>2016-07-05T17:44:02Z</time>
      </trkpt>
      <trkpt lat="47.56958" lon="-2.8045">
        <ele>1.3999938964844</ele>
        <time>2016-07-05T17:44:06Z</time>
      </trkpt>
      <trkpt lat="47.56968" lon="-2.80439">
        <ele>1</ele>
        <time>2016-07-05T17:44:15Z</time>
      </trkpt>
      <trkpt lat="47.56976" lon="-2.80431">
        <ele>1.2000122070312</ele>
        <time>2016-07-05T17:44:23Z</time>
      </trkpt>
      <trkpt lat="47.56983" lon="-2.80425">
        <ele>1.2000122070312</ele>
        <time>2016-07-05T17:44:30Z</time>
      </trkpt>
      <trkpt lat="47.56992" lon="-2.80425">
        <ele>1.3999938964844</ele>
        <time>2016-07-05T17:44:38Z</time>
      </trkpt>
      <trkpt lat="47.57002" lon="-2.8042">
        <ele>1.6000061035156</ele>
        <time>2016-07-05T17:44:46Z</time>
      </trkpt>
      <trkpt lat="47.57011" lon="-2.80408">
        <ele>1.3999938964844</ele>
        <time>2016-07-05T17:44:53Z</time>
      </trkpt>
      <trkpt lat="47.57017" lon="-2.80399">
        <ele>1.7999877929688</ele>
        <time>2016-07-05T17:44:58Z</time>
      </trkpt>
      <trkpt lat="47.5702" lon="-2.80395">
        <ele>2</ele>
        <time>2016-07-05T17:45:01Z</time>
      </trkpt>
      <trkpt lat="47.5703" lon="-2.80385">
        <ele>2</ele>
        <time>2016-07-05T17:45:09Z</time>
      </trkpt>
      <trkpt lat="47.57039" lon="-2.80374">
        <ele>1.6000061035156</ele>
        <time>2016-07-05T17:45:17Z</time>
      </trkpt>
      <trkpt lat="47.57046" lon="-2.80362">
        <ele>1.3999938964844</ele>
        <time>2016-07-05T17:45:25Z</time>
      </trkpt>
      <trkpt lat="47.57055" lon="-2.80348">
        <ele>1.6000061035156</ele>
        <time>2016-07-05T17:45:34Z</time>
      </trkpt>
      <trkpt lat="47.57067" lon="-2.80329">
        <ele>1.7999877929688</ele>
        <time>2016-07-05T17:45:46Z</time>
      </trkpt>
      <trkpt lat="47.57076" lon="-2.80308">
        <ele>2</ele>
        <time>2016-07-05T17:45:57Z</time>
      </trkpt>
      <trkpt lat="47.57086" lon="-2.80297">
        <ele>1.7999877929688</ele>
        <time>2016-07-05T17:46:06Z</time>
      </trkpt>
      <trkpt lat="47.57093" lon="-2.80291">
        <ele>1.3999938964844</ele>
        <time>2016-07-05T17:46:13Z</time>
      </trkpt>
      <trkpt lat="47.57102" lon="-2.8028">
        <ele>1.3999938964844</ele>
        <time>2016-07-05T17:46:21Z</time>
      </trkpt>
      <trkpt lat="47.57115" lon="-2.80264">
        <ele>1.6000061035156</ele>
        <time>2016-07-05T17:46:32Z</time>
      </trkpt>
      <trkpt lat="47.57124" lon="-2.8025">
        <ele>1.3999938964844</ele>
        <time>2016-07-05T17:46:41Z</time>
      </trkpt>
      <trkpt lat="47.5713" lon="-2.80238">
        <ele>1.3999938964844</ele>
        <time>2016-07-05T17:46:50Z</time>
      </trkpt>
      <trkpt lat="47.57138" lon="-2.8022">
        <ele>1</ele>
        <time>2016-07-05T17:47:01Z</time>
      </trkpt>
      <trkpt lat="47.57146" lon="-2.80207">
        <ele>0.79998779296875</ele>
        <time>2016-07-05T17:47:09Z</time>
      </trkpt>
      <trkpt lat="47.57156" lon="-2.80202">
        <ele>1.2000122070312</ele>
        <time>2016-07-05T17:47:16Z</time>
      </trkpt>
      <trkpt lat="47.57162" lon="-2.80199">
        <ele>0.79998779296875</ele>
        <time>2016-07-05T17:47:20Z</time>
      </trkpt>
      <trkpt lat="47.57173" lon="-2.80196">
        <ele>0.60000610351562</ele>
        <time>2016-07-05T17:47:27Z</time>
      </trkpt>
      <trkpt lat="47.57188" lon="-2.80192">
        <ele>1.2000122070312</ele>
        <time>2016-07-05T17:47:37Z</time>
      </trkpt>
      <trkpt lat="47.572" lon="-2.80192">
        <ele>1.3999938964844</ele>
        <time>2016-07-05T17:47:46Z</time>
      </trkpt>
      <trkpt lat="47.57208" lon="-2.80186">
        <ele>1.2000122070312</ele>
        <time>2016-07-05T17:47:54Z</time>
      </trkpt>
      <trkpt lat="47.57218" lon="-2.8018">
        <ele>1.2000122070312</ele>
        <time>2016-07-05T17:48:02Z</time>
      </trkpt>
      <trkpt lat="47.57227" lon="-2.80171">
        <ele>1.3999938964844</ele>
        <time>2016-07-05T17:48:09Z</time>
      </trkpt>
      <trkpt lat="47.5724" lon="-2.80158">
        <ele>1.6000061035156</ele>
        <time>2016-07-05T17:48:19Z</time>
      </trkpt>
      <trkpt lat="47.57252" lon="-2.80145">
        <ele>1.6000061035156</ele>
        <time>2016-07-05T17:48:28Z</time>
      </trkpt>
      <trkpt lat="47.57267" lon="-2.80132">
        <ele>1.7999877929688</ele>
        <time>2016-07-05T17:48:37Z</time>
      </trkpt>
      <trkpt lat="47.57272" lon="-2.80128">
        <ele>1.7999877929688</ele>
        <time>2016-07-05T17:48:40Z</time>
      </trkpt>
      <trkpt lat="47.57282" lon="-2.80119">
        <ele>2.2000122070312</ele>
        <time>2016-07-05T17:48:47Z</time>
      </trkpt>
      <trkpt lat="47.57293" lon="-2.80111">
        <ele>2</ele>
        <time>2016-07-05T17:48:56Z</time>
      </trkpt>
      <trkpt lat="47.57304" lon="-2.80102">
        <ele>1.7999877929688</ele>
        <time>2016-07-05T17:49:06Z</time>
      </trkpt>
      <trkpt lat="47.57318" lon="-2.80089">
        <ele>1.7999877929688</ele>
        <time>2016-07-05T17:49:16Z</time>
      </trkpt>
      <trkpt lat="47.57334" lon="-2.80069">
        <ele>1.6000061035156</ele>
        <time>2016-07-05T17:49:27Z</time>
      </trkpt>
      <trkpt lat="47.57351" lon="-2.80054">
        <ele>1.7999877929688</ele>
        <time>2016-07-05T17:49:36Z</time>
      </trkpt>
      <trkpt lat="47.5737" lon="-2.80039">
        <ele>1.7999877929688</ele>
        <time>2016-07-05T17:49:45Z</time>
      </trkpt>
      <trkpt lat="47.57391" lon="-2.80024">
        <ele>2</ele>
        <time>2016-07-05T17:49:55Z</time>
      </trkpt>
      <trkpt lat="47.57407" lon="-2.80012">
        <ele>2.2000122070312</ele>
        <time>2016-07-05T17:50:03Z</time>
      </trkpt>
      <trkpt lat="47.57424" lon="-2.79997">
        <ele>2</ele>
        <time>2016-07-05T17:50:12Z</time>
      </trkpt>
      <trkpt lat="47.57443" lon="-2.79979">
        <ele>2</ele>
        <time>2016-07-05T17:50:22Z</time>
      </trkpt>
      <trkpt lat="47.57459" lon="-2.79965">
        <ele>2</ele>
        <time>2016-07-05T17:50:30Z</time>
      </trkpt>
      <trkpt lat="47.57473" lon="-2.79951">
        <ele>2.2000122070312</ele>
        <time>2016-07-05T17:50:37Z</time>
      </trkpt>
      <trkpt lat="47.57488" lon="-2.79936">
        <ele>2.6000061035156</ele>
        <time>2016-07-05T17:50:45Z</time>
      </trkpt>
      <trkpt lat="47.57504" lon="-2.79917">
        <ele>2</ele>
        <time>2016-07-05T17:50:54Z</time>
      </trkpt>
      <trkpt lat="47.57522" lon="-2.79895">
        <ele>1.7999877929688</ele>
        <time>2016-07-05T17:51:04Z</time>
      </trkpt>
      <trkpt lat="47.57542" lon="-2.79873">
        <ele>2</ele>
        <time>2016-07-05T17:51:14Z</time>
      </trkpt>
      <trkpt lat="47.57558" lon="-2.79853">
        <ele>2</ele>
        <time>2016-07-05T17:51:23Z</time>
      </trkpt>
      <trkpt lat="47.57577" lon="-2.79832">
        <ele>2</ele>
        <time>2016-07-05T17:51:33Z</time>
      </trkpt>
      <trkpt lat="47.57592" lon="-2.79813">
        <ele>1.7999877929688</ele>
        <time>2016-07-05T17:51:42Z</time>
      </trkpt>
      <trkpt lat="47.57606" lon="-2.79796">
        <ele>1.7999877929688</ele>
        <time>2016-07-05T17:51:50Z</time>
      </trkpt>
      <trkpt lat="47.57622" lon="-2.79777">
        <ele>2</ele>
        <time>2016-07-05T17:51:59Z</time>
      </trkpt>
      <trkpt lat="47.57637" lon="-2.79764">
        <ele>2.3999938964844</ele>
        <time>2016-07-05T17:52:07Z</time>
      </trkpt>
      <trkpt lat="47.57653" lon="-2.79743">
        <ele>2</ele>
        <time>2016-07-05T17:52:17Z</time>
      </trkpt>
      <trkpt lat="47.57666" lon="-2.79727">
        <ele>2.2000122070312</ele>
        <time>2016-07-05T17:52:27Z</time>
      </trkpt>
      <trkpt lat="47.57678" lon="-2.79721">
        <ele>2.2000122070312</ele>
        <time>2016-07-05T17:52:36Z</time>
      </trkpt>
      <trkpt lat="47.57688" lon="-2.79726">
        <ele>1.6000061035156</ele>
        <time>2016-07-05T17:52:44Z</time>
      </trkpt>
      <trkpt lat="47.57692" lon="-2.79736">
        <ele>1.6000061035156</ele>
        <time>2016-07-05T17:52:53Z</time>
      </trkpt>
      <trkpt lat="47.57686" lon="-2.79747">
        <ele>1.2000122070312</ele>
        <time>2016-07-05T17:53:03Z</time>
      </trkpt>
      <trkpt lat="47.5768" lon="-2.79762">
        <ele>1</ele>
        <time>2016-07-05T17:53:13Z</time>
      </trkpt>
      <trkpt lat="47.57672" lon="-2.79777">
        <ele>0.79998779296875</ele>
        <time>2016-07-05T17:53:23Z</time>
      </trkpt>
      <trkpt lat="47.57667" lon="-2.79776">
        <ele>1.3999938964844</ele>
        <time>2016-07-05T17:53:28Z</time>
      </trkpt>
      <trkpt lat="47.57665" lon="-2.79774">
        <ele>1.2000122070312</ele>
        <time>2016-07-05T17:53:30Z</time>
      </trkpt>
      <trkpt lat="47.57665" lon="-2.79761">
        <ele>1</ele>
        <time>2016-07-05T17:53:36Z</time>
      </trkpt>
      <trkpt lat="47.57671" lon="-2.79752">
        <ele>1.3999938964844</ele>
        <time>2016-07-05T17:53:41Z</time>
      </trkpt>
      <trkpt lat="47.57674" lon="-2.79749">
        <ele>1.6000061035156</ele>
        <time>2016-07-05T17:53:43Z</time>
      </trkpt>
      <trkpt lat="47.57688" lon="-2.79736">
        <ele>1.3999938964844</ele>
        <time>2016-07-05T17:53:52Z</time>
      </trkpt>
      <trkpt lat="47.57701" lon="-2.7972">
        <ele>1.2000122070312</ele>
        <time>2016-07-05T17:54:03Z</time>
      </trkpt>
      <trkpt lat="47.57716" lon="-2.79704">
        <ele>0.79998779296875</ele>
        <time>2016-07-05T17:54:15Z</time>
      </trkpt>
      <trkpt lat="47.57726" lon="-2.79692">
        <ele>1.3999938964844</ele>
        <time>2016-07-05T17:54:25Z</time>
      </trkpt>
      <trkpt lat="47.5774" lon="-2.7968">
        <ele>1.6000061035156</ele>
        <time>2016-07-05T17:54:38Z</time>
      </trkpt>
      <trkpt lat="47.57752" lon="-2.79668">
        <ele>1.7999877929688</ele>
        <time>2016-07-05T17:54:47Z</time>
      </trkpt>
      <trkpt lat="47.57754" lon="-2.79667">
        <ele>2</ele>
        <time>2016-07-05T17:54:48Z</time>
      </trkpt>
      <trkpt lat="47.57769" lon="-2.79651">
        <ele>2</ele>
        <time>2016-07-05T17:54:57Z</time>
      </trkpt>
      <trkpt lat="47.5779" lon="-2.79625">
        <ele>2.3999938964844</ele>
        <time>2016-07-05T17:55:10Z</time>
      </trkpt>
      <trkpt lat="47.57805" lon="-2.79611">
        <ele>2.6000061035156</ele>
        <time>2016-07-05T17:55:19Z</time>
      </trkpt>
      <trkpt lat="47.57822" lon="-2.79593">
        <ele>2.3999938964844</ele>
        <time>2016-07-05T17:55:29Z</time>
      </trkpt>
      <trkpt lat="47.57839" lon="-2.79569">
        <ele>2.3999938964844</ele>
        <time>2016-07-05T17:55:41Z</time>
      </trkpt>
      <trkpt lat="47.57852" lon="-2.79557">
        <ele>2</ele>
        <time>2016-07-05T17:55:50Z</time>
      </trkpt>
      <trkpt lat="47.57864" lon="-2.79542">
        <ele>2.2000122070312</ele>
        <time>2016-07-05T17:56:02Z</time>
      </trkpt>
      <trkpt lat="47.57878" lon="-2.79524">
        <ele>2</ele>
        <time>2016-07-05T17:56:14Z</time>
      </trkpt>
      <trkpt lat="47.57887" lon="-2.79513">
        <ele>2</ele>
        <time>2016-07-05T17:56:25Z</time>
      </trkpt>
      <trkpt lat="47.57895" lon="-2.79506">
        <ele>1.7999877929688</ele>
        <time>2016-07-05T17:56:36Z</time>
      </trkpt>
      <trkpt lat="47.57906" lon="-2.79497">
        <ele>1.6000061035156</ele>
        <time>2016-07-05T17:56:48Z</time>
      </trkpt>
      <trkpt lat="47.57917" lon="-2.79489">
        <ele>1.6000061035156</ele>
        <time>2016-07-05T17:57:00Z</time>
      </trkpt>
      <trkpt lat="47.57925" lon="-2.79485">
        <ele>2</ele>
        <time>2016-07-05T17:57:10Z</time>
      </trkpt>
      <trkpt lat="47.57933" lon="-2.79478">
        <ele>2</ele>
        <time>2016-07-05T17:57:24Z</time>
      </trkpt>
      <trkpt lat="47.57942" lon="-2.79473">
        <ele>2</ele>
        <time>2016-07-05T17:57:36Z</time>
      </trkpt>
      <trkpt lat="47.57952" lon="-2.79467">
        <ele>2</ele>
        <time>2016-07-05T17:57:48Z</time>
      </trkpt>
      <trkpt lat="47.57963" lon="-2.79458">
        <ele>2</ele>
        <time>2016-07-05T17:58:01Z</time>
      </trkpt>
      <trkpt lat="47.57971" lon="-2.79445">
        <ele>2</ele>
        <time>2016-07-05T17:58:13Z</time>
      </trkpt>
      <trkpt lat="47.57973" lon="-2.79443">
        <ele>2</ele>
        <time>2016-07-05T17:58:16Z</time>
      </trkpt>
      <trkpt lat="47.57974" lon="-2.79439">
        <ele>1.7999877929688</ele>
        <time>2016-07-05T17:58:19Z</time>
      </trkpt>
      <trkpt lat="47.57979" lon="-2.79428">
        <ele>2</ele>
        <time>2016-07-05T17:58:32Z</time>
      </trkpt>
      <trkpt lat="47.57985" lon="-2.79415">
        <ele>1.7999877929688</ele>
        <time>2016-07-05T17:58:44Z</time>
      </trkpt>
      <trkpt lat="47.57989" lon="-2.79404">
        <ele>2.2000122070312</ele>
        <time>2016-07-05T17:58:54Z</time>
      </trkpt>
      <trkpt lat="47.57995" lon="-2.79395">
        <ele>2.2000122070312</ele>
        <time>2016-07-05T17:59:04Z</time>
      </trkpt>
      <trkpt lat="47.58" lon="-2.79376">
        <ele>2.6000061035156</ele>
        <time>2016-07-05T17:59:16Z</time>
      </trkpt>
      <trkpt lat="47.58003" lon="-2.79363">
        <ele>2.2000122070312</ele>
        <time>2016-07-05T17:59:26Z</time>
      </trkpt>
      <trkpt lat="47.58006" lon="-2.79351">
        <ele>1.6000061035156</ele>
        <time>2016-07-05T17:59:37Z</time>
      </trkpt>
      <trkpt lat="47.58008" lon="-2.7934">
        <ele>1.3999938964844</ele>
        <time>2016-07-05T17:59:48Z</time>
      </trkpt>
      <trkpt lat="47.58012" lon="-2.79328">
        <ele>2</ele>
        <time>2016-07-05T18:00:00Z</time>
      </trkpt>
      <trkpt lat="47.58016" lon="-2.79317">
        <ele>1.7999877929688</ele>
        <time>2016-07-05T18:00:13Z</time>
      </trkpt>
      <trkpt lat="47.58046" lon="-2.792">
        <ele>2.7999877929688</ele>
        <time>2016-07-05T18:02:32Z</time>
      </trkpt>
      <trkpt lat="47.58047" lon="-2.79189">
        <ele>3.2000122070312</ele>
        <time>2016-07-05T18:02:38Z</time>
      </trkpt>
      <trkpt lat="47.58046" lon="-2.79178">
        <ele>2.6000061035156</ele>
        <time>2016-07-05T18:02:46Z</time>
      </trkpt>
      <trkpt lat="47.58046" lon="-2.79174">
        <ele>2.2000122070312</ele>
        <time>2016-07-05T18:02:49Z</time>
      </trkpt>
      <trkpt lat="47.58047" lon="-2.79167">
        <ele>1.7999877929688</ele>
        <time>2016-07-05T18:02:54Z</time>
      </trkpt>
      <trkpt lat="47.58048" lon="-2.79161">
        <ele>1.2000122070312</ele>
        <time>2016-07-05T18:02:59Z</time>
      </trkpt>
      <trkpt lat="47.58048" lon="-2.79154">
        <ele>0.39999389648438</ele>
        <time>2016-07-05T18:03:04Z</time>
      </trkpt>
      <trkpt lat="47.58047" lon="-2.79145">
        <ele>2</ele>
        <time>2016-07-05T18:03:11Z</time>
      </trkpt>
      <trkpt lat="47.58047" lon="-2.79139">
        <ele>2.2000122070312</ele>
        <time>2016-07-05T18:03:16Z</time>
      </trkpt>
      <trkpt lat="47.58047" lon="-2.79137">
        <ele>2.3999938964844</ele>
        <time>2016-07-05T18:03:17Z</time>
      </trkpt>
      <trkpt lat="47.58047" lon="-2.79135">
        <ele>2.6000061035156</ele>
        <time>2016-07-05T18:03:19Z</time>
      </trkpt>
      <trkpt lat="47.58047" lon="-2.7912">
        <ele>3</ele>
        <time>2016-07-05T18:03:32Z</time>
      </trkpt>
      <trkpt lat="47.58046" lon="-2.79116">
        <ele>3.2000122070312</ele>
        <time>2016-07-05T18:03:35Z</time>
      </trkpt>
      <trkpt lat="47.58045" lon="-2.79105">
        <ele>3.7999877929688</ele>
        <time>2016-07-05T18:03:45Z</time>
      </trkpt>
      <trkpt lat="47.58045" lon="-2.79091">
        <ele>4.2000122070312</ele>
        <time>2016-07-05T18:03:59Z</time>
      </trkpt>
      <trkpt lat="47.58045" lon="-2.7909">
        <ele>4.3999938964844</ele>
        <time>2016-07-05T18:04:01Z</time>
      </trkpt>
      <trkpt lat="47.57982" lon="-2.78894">
        <ele>0.79998779296875</ele>
        <time>2016-07-05T18:07:47Z</time>
      </trkpt>
      <trkpt lat="47.5798" lon="-2.78891">
        <ele>0.60000610351562</ele>
        <time>2016-07-05T18:07:50Z</time>
      </trkpt>
      <trkpt lat="47.57968" lon="-2.78871">
        <ele>1</ele>
        <time>2016-07-05T18:08:04Z</time>
      </trkpt>
      <trkpt lat="47.57954" lon="-2.78851">
        <ele>1</ele>
        <time>2016-07-05T18:08:20Z</time>
      </trkpt>
      <trkpt lat="47.57944" lon="-2.78836">
        <ele>0.79998779296875</ele>
        <time>2016-07-05T18:08:33Z</time>
      </trkpt>
      <trkpt lat="47.57931" lon="-2.78816">
        <ele>0.60000610351562</ele>
        <time>2016-07-05T18:08:48Z</time>
      </trkpt>
      <trkpt lat="47.57922" lon="-2.78802">
        <ele>1</ele>
        <time>2016-07-05T18:09:01Z</time>
      </trkpt>
      <trkpt lat="47.57913" lon="-2.7879">
        <ele>1</ele>
        <time>2016-07-05T18:09:12Z</time>
      </trkpt>
      <trkpt lat="47.57905" lon="-2.78777">
        <ele>0.79998779296875</ele>
        <time>2016-07-05T18:09:23Z</time>
      </trkpt>
      <trkpt lat="47.57895" lon="-2.78763">
        <ele>0.20001220703125</ele>
        <time>2016-07-05T18:09:37Z</time>
      </trkpt>
      <trkpt lat="47.57887" lon="-2.78751">
        <ele>0.39999389648438</ele>
        <time>2016-07-05T18:09:47Z</time>
      </trkpt>
      <trkpt lat="47.57879" lon="-2.78739">
        <ele>0.39999389648438</ele>
        <time>2016-07-05T18:09:58Z</time>
      </trkpt>
      <trkpt lat="47.57871" lon="-2.78726">
        <ele>0.79998779296875</ele>
        <time>2016-07-05T18:10:11Z</time>
      </trkpt>
      <trkpt lat="47.57864" lon="-2.78715">
        <ele>0.79998779296875</ele>
        <time>2016-07-05T18:10:24Z</time>
      </trkpt>
      <trkpt lat="47.57857" lon="-2.78706">
        <ele>0.39999389648438</ele>
        <time>2016-07-05T18:10:34Z</time>
      </trkpt>
      <trkpt lat="47.57847" lon="-2.78693">
        <ele>0.79998779296875</ele>
        <time>2016-07-05T18:10:46Z</time>
      </trkpt>
      <trkpt lat="47.57837" lon="-2.7868">
        <ele>1</ele>
        <time>2016-07-05T18:10:59Z</time>
      </trkpt>
      <trkpt lat="47.57826" lon="-2.78665">
        <ele>1.2000122070312</ele>
        <time>2016-07-05T18:11:14Z</time>
      </trkpt>
      <trkpt lat="47.57814" lon="-2.78654">
        <ele>1.2000122070312</ele>
        <time>2016-07-05T18:11:28Z</time>
      </trkpt>
      <trkpt lat="47.57804" lon="-2.78647">
        <ele>1</ele>
        <time>2016-07-05T18:11:40Z</time>
      </trkpt>
      <trkpt lat="47.57793" lon="-2.78638">
        <ele>0.39999389648438</ele>
        <time>2016-07-05T18:11:52Z</time>
      </trkpt>
      <trkpt lat="47.57782" lon="-2.78628">
        <ele>1</ele>
        <time>2016-07-05T18:12:03Z</time>
      </trkpt>
      <trkpt lat="47.5777" lon="-2.78619">
        <ele>1.3999938964844</ele>
        <time>2016-07-05T18:12:15Z</time>
      </trkpt>
      <trkpt lat="47.57755" lon="-2.78608">
        <ele>1</ele>
        <time>2016-07-05T18:12:31Z</time>
      </trkpt>
      <trkpt lat="47.57744" lon="-2.78601">
        <ele>0.20001220703125</ele>
        <time>2016-07-05T18:12:44Z</time>
      </trkpt>
      <trkpt lat="47.57732" lon="-2.78596">
        <ele>0.39999389648438</ele>
        <time>2016-07-05T18:12:56Z</time>
      </trkpt>
      <trkpt lat="47.57727" lon="-2.78591">
        <ele>0.79998779296875</ele>
        <time>2016-07-05T18:13:07Z</time>
      </trkpt>
      <trkpt lat="47.57629" lon="-2.78553">
        <ele>-0.39999389648438</ele>
        <time>2016-07-05T18:15:25Z</time>
      </trkpt>
      <trkpt lat="47.57625" lon="-2.78554">
        <ele>-0.20001220703125</ele>
        <time>2016-07-05T18:15:28Z</time>
      </trkpt>
      <trkpt lat="47.5761" lon="-2.78552">
        <time>2016-07-05T18:15:39Z</time>
      </trkpt>
      <trkpt lat="47.57594" lon="-2.78551">
        <ele>-0.39999389648438</ele>
        <time>2016-07-05T18:15:52Z</time>
      </trkpt>
      <trkpt lat="47.57578" lon="-2.78552">
        <ele>-0.39999389648438</ele>
        <time>2016-07-05T18:16:05Z</time>
      </trkpt>
      <trkpt lat="47.57567" lon="-2.78554">
        <ele>-0.60000610351562</ele>
        <time>2016-07-05T18:16:18Z</time>
      </trkpt>
      <trkpt lat="47.57553" lon="-2.78553">
        <ele>-0.39999389648438</ele>
        <time>2016-07-05T18:16:32Z</time>
      </trkpt>
      <trkpt lat="47.57539" lon="-2.78552">
        <ele>-0.20001220703125</ele>
        <time>2016-07-05T18:16:46Z</time>
      </trkpt>
      <trkpt lat="47.57529" lon="-2.78553">
        <ele>0.20001220703125</ele>
        <time>2016-07-05T18:16:59Z</time>
      </trkpt>
      <trkpt lat="47.57519" lon="-2.78555">
        <ele>0.20001220703125</ele>
        <time>2016-07-05T18:17:13Z</time>
      </trkpt>
      <trkpt lat="47.57508" lon="-2.78551">
        <ele>-0.20001220703125</ele>
        <time>2016-07-05T18:17:24Z</time>
      </trkpt>
      <trkpt lat="47.57497" lon="-2.78547">
        <ele>0.20001220703125</ele>
        <time>2016-07-05T18:17:34Z</time>
      </trkpt>
      <trkpt lat="47.57484" lon="-2.78554">
        <ele>0.20001220703125</ele>
        <time>2016-07-05T18:17:46Z</time>
      </trkpt>
      <trkpt lat="47.57472" lon="-2.78554">
        <ele>0.20001220703125</ele>
        <time>2016-07-05T18:17:56Z</time>
      </trkpt>
      <trkpt lat="47.57459" lon="-2.78556">
        <ele>0.20001220703125</ele>
        <time>2016-07-05T18:18:07Z</time>
      </trkpt>
      <trkpt lat="47.57448" lon="-2.78555">
        <ele>0.20001220703125</ele>
        <time>2016-07-05T18:18:17Z</time>
      </trkpt>
      <trkpt lat="47.57432" lon="-2.7856">
        <ele>0.60000610351562</ele>
        <time>2016-07-05T18:18:30Z</time>
      </trkpt>
      <trkpt lat="47.57431" lon="-2.78561">
        <ele>0.60000610351562</ele>
        <time>2016-07-05T18:18:31Z</time>
      </trkpt>
      <trkpt lat="47.57413" lon="-2.78565">
        <ele>1.3999938964844</ele>
        <time>2016-07-05T18:18:45Z</time>
      </trkpt>
      <trkpt lat="47.57407" lon="-2.78568">
        <ele>1.6000061035156</ele>
        <time>2016-07-05T18:18:50Z</time>
      </trkpt>
      <trkpt lat="47.574" lon="-2.78574">
        <ele>1.7999877929688</ele>
        <time>2016-07-05T18:18:55Z</time>
      </trkpt>
      <trkpt lat="47.57382" lon="-2.78583">
        <ele>1.7999877929688</ele>
        <time>2016-07-05T18:19:09Z</time>
      </trkpt>
      <trkpt lat="47.57368" lon="-2.78587">
        <ele>1.6000061035156</ele>
        <time>2016-07-05T18:19:20Z</time>
      </trkpt>
      <trkpt lat="47.57358" lon="-2.78594">
        <ele>1.6000061035156</ele>
        <time>2016-07-05T18:19:29Z</time>
      </trkpt>
      <trkpt lat="47.57344" lon="-2.78604">
        <ele>1.3999938964844</ele>
        <time>2016-07-05T18:19:40Z</time>
      </trkpt>
      <trkpt lat="47.57328" lon="-2.78614">
        <ele>1</ele>
        <time>2016-07-05T18:19:53Z</time>
      </trkpt>
      <trkpt lat="47.57318" lon="-2.78632">
        <ele>1</ele>
        <time>2016-07-05T18:20:04Z</time>
      </trkpt>
      <trkpt lat="47.57316" lon="-2.78639">
        <ele>0.60000610351562</ele>
        <time>2016-07-05T18:20:07Z</time>
      </trkpt>
      <trkpt lat="47.57307" lon="-2.78653">
        <ele>0.60000610351562</ele>
        <time>2016-07-05T18:20:13Z</time>
      </trkpt>
      <trkpt lat="47.5729" lon="-2.78679">
        <ele>0.39999389648438</ele>
        <time>2016-07-05T18:20:24Z</time>
      </trkpt>
      <trkpt lat="47.5728" lon="-2.78695">
        <ele>0.60000610351562</ele>
        <time>2016-07-05T18:20:33Z</time>
      </trkpt>
      <trkpt lat="47.57273" lon="-2.78705">
        <ele>0.39999389648438</ele>
        <time>2016-07-05T18:20:43Z</time>
      </trkpt>
      <trkpt lat="47.57269" lon="-2.78711">
        <ele>1.3999938964844</ele>
        <time>2016-07-05T18:20:53Z</time>
      </trkpt>
      <trkpt lat="47.57261" lon="-2.78719">
        <ele>0.79998779296875</ele>
        <time>2016-07-05T18:21:04Z</time>
      </trkpt>
      <trkpt lat="47.57255" lon="-2.78739">
        <ele>0.79998779296875</ele>
        <time>2016-07-05T18:21:14Z</time>
      </trkpt>
      <trkpt lat="47.57251" lon="-2.78758">
        <ele>0.39999389648438</ele>
        <time>2016-07-05T18:21:22Z</time>
      </trkpt>
      <trkpt lat="47.57243" lon="-2.78761">
        <ele>0.20001220703125</ele>
        <time>2016-07-05T18:21:27Z</time>
      </trkpt>
      <trkpt lat="47.57238" lon="-2.78749">
        <ele>0.20001220703125</ele>
        <time>2016-07-05T18:21:32Z</time>
      </trkpt>
      <trkpt lat="47.57242" lon="-2.78737">
        <ele>0.39999389648438</ele>
        <time>2016-07-05T18:21:37Z</time>
      </trkpt>
      <trkpt lat="47.57251" lon="-2.78736">
        <ele>0.20001220703125</ele>
        <time>2016-07-05T18:21:42Z</time>
      </trkpt>
      <trkpt lat="47.57256" lon="-2.78749">
        <ele>0.79998779296875</ele>
        <time>2016-07-05T18:21:47Z</time>
      </trkpt>
      <trkpt lat="47.57254" lon="-2.78771">
        <ele>0.79998779296875</ele>
        <time>2016-07-05T18:21:55Z</time>
      </trkpt>
      <trkpt lat="47.57249" lon="-2.78795">
        <time>2016-07-05T18:22:04Z</time>
      </trkpt>
      <trkpt lat="47.57246" lon="-2.78818">
        <ele>-0.39999389648438</ele>
        <time>2016-07-05T18:22:13Z</time>
      </trkpt>
      <trkpt lat="47.57245" lon="-2.78822">
        <ele>-0.60000610351562</ele>
        <time>2016-07-05T18:22:15Z</time>
      </trkpt>
      <trkpt lat="47.57243" lon="-2.78846">
        <ele>-0.39999389648438</ele>
        <time>2016-07-05T18:22:28Z</time>
      </trkpt>
      <trkpt lat="47.57242" lon="-2.78864">
        <ele>-1.2000122070312</ele>
        <time>2016-07-05T18:22:38Z</time>
      </trkpt>
      <trkpt lat="47.57241" lon="-2.78878">
        <ele>-1.2000122070312</ele>
        <time>2016-07-05T18:22:47Z</time>
      </trkpt>
      <trkpt lat="47.57239" lon="-2.78888">
        <ele>-1.3999938964844</ele>
        <time>2016-07-05T18:22:58Z</time>
      </trkpt>
      <trkpt lat="47.57238" lon="-2.78898">
        <ele>-1.2000122070312</ele>
        <time>2016-07-05T18:23:09Z</time>
      </trkpt>
      <trkpt lat="47.5724" lon="-2.78917">
        <ele>-0.20001220703125</ele>
        <time>2016-07-05T18:24:28Z</time>
      </trkpt>
      <trkpt lat="47.57246" lon="-2.78931">
        <ele>0.39999389648438</ele>
        <time>2016-07-05T18:51:06Z</time>
      </trkpt>
      <trkpt lat="47.57249" lon="-2.78932">
        <ele>0.20001220703125</ele>
        <time>2016-07-05T18:51:09Z</time>
      </trkpt>
      <trkpt lat="47.57253" lon="-2.78931">
        <ele>-0.20001220703125</ele>
        <time>2016-07-05T18:51:14Z</time>
      </trkpt>
      <trkpt lat="47.57261" lon="-2.78921">
        <ele>0.20001220703125</ele>
        <time>2016-07-05T18:51:23Z</time>
      </trkpt>
      <trkpt lat="47.57268" lon="-2.78909">
        <ele>0.39999389648438</ele>
        <time>2016-07-05T18:51:33Z</time>
      </trkpt>
      <trkpt lat="47.57274" lon="-2.78904">
        <ele>0.60000610351562</ele>
        <time>2016-07-05T18:51:39Z</time>
      </trkpt>
      <trkpt lat="47.57279" lon="-2.78901">
        <ele>1.2000122070312</ele>
        <time>2016-07-05T18:51:42Z</time>
      </trkpt>
      <trkpt lat="47.57285" lon="-2.78901">
        <ele>0.39999389648438</ele>
        <time>2016-07-05T18:51:49Z</time>
      </trkpt>
      <trkpt lat="47.57287" lon="-2.789">
        <ele>0.39999389648438</ele>
        <time>2016-07-05T18:51:50Z</time>
      </trkpt>
      <trkpt lat="47.57296" lon="-2.78899">
        <ele>0.39999389648438</ele>
        <time>2016-07-05T18:51:56Z</time>
      </trkpt>
      <trkpt lat="47.57304" lon="-2.78898">
        <ele>0.20001220703125</ele>
        <time>2016-07-05T18:52:04Z</time>
      </trkpt>
      <trkpt lat="47.57308" lon="-2.78897">
        <ele>0.39999389648438</ele>
        <time>2016-07-05T18:52:06Z</time>
      </trkpt>
      <trkpt lat="47.57319" lon="-2.78897">
        <ele>1.2000122070312</ele>
        <time>2016-07-05T18:52:16Z</time>
      </trkpt>
      <trkpt lat="47.57325" lon="-2.78896">
        <ele>1.7999877929688</ele>
        <time>2016-07-05T18:52:19Z</time>
      </trkpt>
      <trkpt lat="47.57328" lon="-2.78896">
        <ele>2</ele>
        <time>2016-07-05T18:52:22Z</time>
      </trkpt>
      <trkpt lat="47.57333" lon="-2.78908">
        <ele>4.7999877929688</ele>
        <time>2016-07-05T18:53:48Z</time>
      </trkpt>
      <trkpt lat="47.57333" lon="-2.78906">
        <ele>4.7999877929688</ele>
        <time>2016-07-05T18:53:49Z</time>
      </trkpt>
      <trkpt lat="47.57334" lon="-2.78898">
        <ele>3.7999877929688</ele>
        <time>2016-07-05T18:53:55Z</time>
      </trkpt>
      <trkpt lat="47.57335" lon="-2.78896">
        <ele>3.6000061035156</ele>
        <time>2016-07-05T18:53:56Z</time>
      </trkpt>
      <trkpt lat="47.57338" lon="-2.78893">
        <ele>2.6000061035156</ele>
        <time>2016-07-05T18:53:59Z</time>
      </trkpt>
      <trkpt lat="47.57344" lon="-2.78891">
        <ele>0.79998779296875</ele>
        <time>2016-07-05T18:54:04Z</time>
      </trkpt>
      <trkpt lat="47.57349" lon="-2.78891">
        <ele>0.39999389648438</ele>
        <time>2016-07-05T18:54:07Z</time>
      </trkpt>
      <trkpt lat="47.57352" lon="-2.78895">
        <ele>0.79998779296875</ele>
        <time>2016-07-05T18:54:10Z</time>
      </trkpt>
      <trkpt lat="47.57353" lon="-2.78897">
        <ele>0.79998779296875</ele>
        <time>2016-07-05T18:54:11Z</time>
      </trkpt>
      <trkpt lat="47.57358" lon="-2.78914">
        <ele>1.2000122070312</ele>
        <time>2016-07-05T18:54:23Z</time>
      </trkpt>
      <trkpt lat="47.5736" lon="-2.78916">
        <ele>1.2000122070312</ele>
        <time>2016-07-05T18:54:24Z</time>
      </trkpt>
      <trkpt lat="47.57368" lon="-2.78926">
        <ele>1.3999938964844</ele>
        <time>2016-07-05T18:54:31Z</time>
      </trkpt>
      <trkpt lat="47.57369" lon="-2.78947">
        <ele>1.7999877929688</ele>
        <time>2016-07-05T18:54:45Z</time>
      </trkpt>
      <trkpt lat="47.57368" lon="-2.78952">
        <ele>2.2000122070312</ele>
        <time>2016-07-05T18:56:12Z</time>
      </trkpt>
      <trkpt lat="47.57369" lon="-2.7895">
        <ele>2</ele>
        <time>2016-07-05T18:56:13Z</time>
      </trkpt>
      <trkpt lat="47.57377" lon="-2.78961">
        <ele>1.7999877929688</ele>
        <time>2016-07-05T18:56:39Z</time>
      </trkpt>
      <trkpt lat="47.57379" lon="-2.78964">
        <ele>2</ele>
        <time>2016-07-05T18:56:41Z</time>
      </trkpt>
      <trkpt lat="47.5741" lon="-2.78982">
        <ele>3.6000061035156</ele>
        <time>2016-07-05T18:57:44Z</time>
      </trkpt>
      <trkpt lat="47.57413" lon="-2.78984">
        <ele>3.6000061035156</ele>
        <time>2016-07-05T18:57:46Z</time>
      </trkpt>
      <trkpt lat="47.57435" lon="-2.79033">
        <ele>0.39999389648438</ele>
        <time>2016-07-05T18:58:24Z</time>
      </trkpt>
      <trkpt lat="47.57437" lon="-2.79049">
        <ele>0.20001220703125</ele>
        <time>2016-07-05T18:58:33Z</time>
      </trkpt>
      <trkpt lat="47.57452" lon="-2.79086">
        <ele>-3.2000122070312</ele>
        <time>2016-07-05T18:59:00Z</time>
      </trkpt>
      <trkpt lat="47.57456" lon="-2.79101">
        <ele>-2.7999877929688</ele>
        <time>2016-07-05T18:59:12Z</time>
      </trkpt>
      <trkpt lat="47.57457" lon="-2.79104">
        <ele>-2.7999877929688</ele>
        <time>2016-07-05T18:59:14Z</time>
      </trkpt>
      <trkpt lat="47.5746" lon="-2.79119">
        <ele>-1.3999938964844</ele>
        <time>2016-07-05T19:00:01Z</time>
      </trkpt>
      <trkpt lat="47.57461" lon="-2.79125">
        <ele>-1.2000122070312</ele>
        <time>2016-07-05T19:00:04Z</time>
      </trkpt>
      <trkpt lat="47.57463" lon="-2.79135">
        <ele>-1</ele>
        <time>2016-07-05T19:00:11Z</time>
      </trkpt>
      <trkpt lat="47.57467" lon="-2.79147">
        <ele>-0.60000610351562</ele>
        <time>2016-07-05T19:00:17Z</time>
      </trkpt>
      <trkpt lat="47.5747" lon="-2.79156">
        <ele>-1</ele>
        <time>2016-07-05T19:00:25Z</time>
      </trkpt>
      <trkpt lat="47.57472" lon="-2.79163">
        <ele>-1.3999938964844</ele>
        <time>2016-07-05T19:00:29Z</time>
      </trkpt>
      <trkpt lat="47.57476" lon="-2.79177">
        <ele>-1.3999938964844</ele>
        <time>2016-07-05T19:00:39Z</time>
      </trkpt>
      <trkpt lat="47.57477" lon="-2.79181">
        <ele>-1.3999938964844</ele>
        <time>2016-07-05T19:00:41Z</time>
      </trkpt>
      <trkpt lat="47.57483" lon="-2.79193">
        <ele>-1.3999938964844</ele>
        <time>2016-07-05T19:00:50Z</time>
      </trkpt>
      <trkpt lat="47.57497" lon="-2.79224">
        <ele>-2.3999938964844</ele>
        <time>2016-07-05T19:01:14Z</time>
      </trkpt>
      <trkpt lat="47.57479" lon="-2.79187">
        <ele>0.39999389648438</ele>
        <time>2016-07-05T19:04:30Z</time>
      </trkpt>
      <trkpt lat="47.57468" lon="-2.79153">
        <ele>0.60000610351562</ele>
        <time>2016-07-05T19:04:55Z</time>
      </trkpt>
      <trkpt lat="47.57466" lon="-2.79146">
        <ele>0.79998779296875</ele>
        <time>2016-07-05T19:05:00Z</time>
      </trkpt>
      <trkpt lat="47.57464" lon="-2.79134">
        <ele>1</ele>
        <time>2016-07-05T19:05:09Z</time>
      </trkpt>
      <trkpt lat="47.57462" lon="-2.79126">
        <ele>1</ele>
        <time>2016-07-05T19:05:15Z</time>
      </trkpt>
      <trkpt lat="47.57461" lon="-2.7912">
        <ele>1.3999938964844</ele>
        <time>2016-07-05T19:05:19Z</time>
      </trkpt>
      <trkpt lat="47.57459" lon="-2.79115">
        <ele>1.3999938964844</ele>
        <time>2016-07-05T19:05:23Z</time>
      </trkpt>
      <trkpt lat="47.57458" lon="-2.79109">
        <ele>1.2000122070312</ele>
        <time>2016-07-05T19:05:27Z</time>
      </trkpt>
      <trkpt lat="47.57457" lon="-2.79107">
        <ele>1.2000122070312</ele>
        <time>2016-07-05T19:05:29Z</time>
      </trkpt>
      <trkpt lat="47.57428" lon="-2.79016">
        <ele>-1</ele>
        <time>2016-07-05T19:06:41Z</time>
      </trkpt>
      <trkpt lat="47.57402" lon="-2.7898">
        <ele>-4</ele>
        <time>2016-07-05T19:07:19Z</time>
      </trkpt>
      <trkpt lat="47.57401" lon="-2.7898">
        <ele>-3.3999938964844</ele>
        <time>2016-07-05T19:07:20Z</time>
      </trkpt>
      <trkpt lat="47.57399" lon="-2.78979">
        <ele>-3</ele>
        <time>2016-07-05T19:07:22Z</time>
      </trkpt>
      <trkpt lat="47.57397" lon="-2.78977">
        <ele>-1.7999877929688</ele>
        <time>2016-07-05T19:07:24Z</time>
      </trkpt>
      <trkpt lat="47.57394" lon="-2.78976">
        <ele>-0.79998779296875</ele>
        <time>2016-07-05T19:07:27Z</time>
      </trkpt>
      <trkpt lat="47.57393" lon="-2.78974">
        <ele>-0.39999389648438</ele>
        <time>2016-07-05T19:07:28Z</time>
      </trkpt>
      <trkpt lat="47.57388" lon="-2.78973">
        <ele>5.9</ele>
        <time>2016-07-05T19:07:33Z</time>
      </trkpt>
      <trkpt lat="47.57387" lon="-2.78973">
        <ele>0.39999389648438</ele>
        <time>2016-07-05T19:07:34Z</time>
      </trkpt>
      <trkpt lat="47.57384" lon="-2.7897">
        <ele>1</ele>
        <time>2016-07-05T19:07:38Z</time>
      </trkpt>
      <trkpt lat="47.57373" lon="-2.78942">
        <ele>3.3999938964844</ele>
        <time>2016-07-05T19:08:02Z</time>
      </trkpt>
      <trkpt lat="47.57369" lon="-2.78932">
        <ele>3.7999877929688</ele>
        <time>2016-07-05T19:08:12Z</time>
      </trkpt>
      <trkpt lat="47.57369" lon="-2.78929">
        <ele>4</ele>
        <time>2016-07-05T19:08:14Z</time>
      </trkpt>
      <trkpt lat="47.57365" lon="-2.78923">
        <ele>4.2000122070312</ele>
        <time>2016-07-05T19:08:20Z</time>
      </trkpt>
      <trkpt lat="47.5736" lon="-2.78917">
        <ele>4.6000061035156</ele>
        <time>2016-07-05T19:08:29Z</time>
      </trkpt>
      <trkpt lat="47.57329" lon="-2.78881">
        <ele>1</ele>
        <time>2016-07-05T19:09:55Z</time>
      </trkpt>
      <trkpt lat="47.57325" lon="-2.78879">
        <ele>0.20001220703125</ele>
        <time>2016-07-05T19:09:59Z</time>
      </trkpt>
      <trkpt lat="47.57324" lon="-2.7888">
        <ele>0.39999389648438</ele>
        <time>2016-07-05T19:10:00Z</time>
      </trkpt>
      <trkpt lat="47.57321" lon="-2.78884">
        <ele>1</ele>
        <time>2016-07-05T19:10:04Z</time>
      </trkpt>
      <trkpt lat="47.57316" lon="-2.78892">
        <ele>1</ele>
        <time>2016-07-05T19:10:12Z</time>
      </trkpt>
      <trkpt lat="47.57314" lon="-2.78895">
        <ele>1.7999877929688</ele>
        <time>2016-07-05T19:10:16Z</time>
      </trkpt>
      <trkpt lat="47.57311" lon="-2.78897">
        <ele>1.6000061035156</ele>
        <time>2016-07-05T19:10:19Z</time>
      </trkpt>
      <trkpt lat="47.57307" lon="-2.78897">
        <ele>1.3999938964844</ele>
        <time>2016-07-05T19:10:22Z</time>
      </trkpt>
      <trkpt lat="47.573" lon="-2.78896">
        <ele>1</ele>
        <time>2016-07-05T19:10:28Z</time>
      </trkpt>
      <trkpt lat="47.5729" lon="-2.78898">
        <ele>1.3999938964844</ele>
        <time>2016-07-05T19:10:41Z</time>
      </trkpt>
      <trkpt lat="47.57289" lon="-2.78898">
        <ele>1.3999938964844</ele>
        <time>2016-07-05T19:10:42Z</time>
      </trkpt>
      <trkpt lat="47.57282" lon="-2.78902">
        <ele>1</ele>
        <time>2016-07-05T19:10:53Z</time>
      </trkpt>
      <trkpt lat="47.5728" lon="-2.78903">
        <ele>0.60000610351562</ele>
        <time>2016-07-05T19:10:55Z</time>
      </trkpt>
      <trkpt lat="47.57277" lon="-2.78904">
        <ele>0.39999389648438</ele>
        <time>2016-07-05T19:10:58Z</time>
      </trkpt>
      <trkpt lat="47.57275" lon="-2.78906">
        <ele>0.39999389648438</ele>
        <time>2016-07-05T19:11:01Z</time>
      </trkpt>
      <trkpt lat="47.5727" lon="-2.78908">
        <ele>0.39999389648438</ele>
        <time>2016-07-05T19:11:06Z</time>
      </trkpt>
      <trkpt lat="47.57268" lon="-2.78909">
        <ele>0.39999389648438</ele>
        <time>2016-07-05T19:11:09Z</time>
      </trkpt>
      <trkpt lat="47.57266" lon="-2.78911">
        <ele>0.20001220703125</ele>
        <time>2016-07-05T19:11:12Z</time>
      </trkpt>
      <trkpt lat="47.57265" lon="-2.78912">
        <ele>2.4</ele>
        <time>2016-07-05T19:11:13Z</time>
      </trkpt>
      <trkpt lat="47.57265" lon="-2.78914">
        <ele>-0.20001220703125</ele>
        <time>2016-07-05T19:11:14Z</time>
      </trkpt>
      <trkpt lat="47.57262" lon="-2.78917">
        <ele>-0.39999389648438</ele>
        <time>2016-07-05T19:11:17Z</time>
      </trkpt>
      <trkpt lat="47.57258" lon="-2.78921">
        <ele>-0.79998779296875</ele>
        <time>2016-07-05T19:11:23Z</time>
      </trkpt>
      <trkpt lat="47.57253" lon="-2.78916">
        <ele>-1.3999938964844</ele>
        <time>2016-07-05T19:11:34Z</time>
      </trkpt>
      <trkpt lat="47.57251" lon="-2.78915">
        <ele>-1.3999938964844</ele>
        <time>2016-07-05T19:11:36Z</time>
      </trkpt>
      <trkpt lat="47.57248" lon="-2.78913">
        <ele>-1.3999938964844</ele>
        <time>2016-07-05T19:11:39Z</time>
      </trkpt>
      <trkpt lat="47.57247" lon="-2.78913">
        <ele>-1.6000061035156</ele>
        <time>2016-07-05T19:11:41Z</time>
      </trkpt>
      <trkpt lat="47.57242" lon="-2.78917">
        <ele>-1.3999938964844</ele>
        <time>2016-07-05T19:11:49Z</time>
      </trkpt>
      <trkpt lat="47.57241" lon="-2.78918">
        <ele>-1.2000122070312</ele>
        <time>2016-07-05T19:11:52Z</time>
      </trkpt>
      <trkpt lat="47.5724" lon="-2.78919">
        <ele>-1.3999938964844</ele>
        <time>2016-07-05T19:11:55Z</time>
      </trkpt>
      <trkpt lat="47.57227" lon="-2.78869">
        <ele>0.20001220703125</ele>
        <time>2016-07-05T19:16:47Z</time>
      </trkpt>
      <trkpt lat="47.57225" lon="-2.78866">
        <ele>0.39999389648438</ele>
        <time>2016-07-05T19:16:49Z</time>
      </trkpt>
      <trkpt lat="47.57213" lon="-2.78851">
        <time>2016-07-05T19:17:01Z</time>
      </trkpt>
      <trkpt lat="47.572" lon="-2.78833">
        <ele>0.39999389648438</ele>
        <time>2016-07-05T19:17:13Z</time>
      </trkpt>
      <trkpt lat="47.57182" lon="-2.78812">
        <ele>0.39999389648438</ele>
        <time>2016-07-05T19:17:26Z</time>
      </trkpt>
      <trkpt lat="47.57164" lon="-2.78792">
        <ele>0.60000610351562</ele>
        <time>2016-07-05T19:17:40Z</time>
      </trkpt>
      <trkpt lat="47.57146" lon="-2.7877">
        <ele>0.79998779296875</ele>
        <time>2016-07-05T19:17:54Z</time>
      </trkpt>
      <trkpt lat="47.57127" lon="-2.78749">
        <ele>0.39999389648438</ele>
        <time>2016-07-05T19:18:08Z</time>
      </trkpt>
      <trkpt lat="47.57106" lon="-2.78722">
        <ele>0.60000610351562</ele>
        <time>2016-07-05T19:18:22Z</time>
      </trkpt>
      <trkpt lat="47.57081" lon="-2.78693">
        <ele>1.2000122070312</ele>
        <time>2016-07-05T19:18:38Z</time>
      </trkpt>
      <trkpt lat="47.57065" lon="-2.78673">
        <ele>0.79998779296875</ele>
        <time>2016-07-05T19:18:50Z</time>
      </trkpt>
      <trkpt lat="47.57044" lon="-2.78649">
        <ele>0.79998779296875</ele>
        <time>2016-07-05T19:19:04Z</time>
      </trkpt>
      <trkpt lat="47.57029" lon="-2.78632">
        <ele>0.60000610351562</ele>
        <time>2016-07-05T19:19:14Z</time>
      </trkpt>
      <trkpt lat="47.57009" lon="-2.78615">
        <ele>0.79998779296875</ele>
        <time>2016-07-05T19:19:27Z</time>
      </trkpt>
      <trkpt lat="47.57" lon="-2.78607">
        <ele>1.2000122070312</ele>
        <time>2016-07-05T19:19:33Z</time>
      </trkpt>
      <trkpt lat="47.56991" lon="-2.78598">
        <ele>1</ele>
        <time>2016-07-05T19:19:39Z</time>
      </trkpt>
      <trkpt lat="47.56973" lon="-2.78578">
        <ele>1</ele>
        <time>2016-07-05T19:19:51Z</time>
      </trkpt>
      <trkpt lat="47.56959" lon="-2.78557">
        <ele>0.79998779296875</ele>
        <time>2016-07-05T19:20:04Z</time>
      </trkpt>
      <trkpt lat="47.56943" lon="-2.78538">
        <ele>0.79998779296875</ele>
        <time>2016-07-05T19:20:17Z</time>
      </trkpt>
      <trkpt lat="47.56933" lon="-2.78529">
        <ele>0.20001220703125</ele>
        <time>2016-07-05T19:20:24Z</time>
      </trkpt>
      <trkpt lat="47.56926" lon="-2.78525">
        <ele>0.39999389648438</ele>
        <time>2016-07-05T19:20:28Z</time>
      </trkpt>
      <trkpt lat="47.56908" lon="-2.78514">
        <ele>0.79998779296875</ele>
        <time>2016-07-05T19:20:40Z</time>
      </trkpt>
      <trkpt lat="47.5689" lon="-2.78507">
        <ele>0.79998779296875</ele>
        <time>2016-07-05T19:20:53Z</time>
      </trkpt>
      <trkpt lat="47.56873" lon="-2.78507">
        <ele>1</ele>
        <time>2016-07-05T19:21:03Z</time>
      </trkpt>
      <trkpt lat="47.56851" lon="-2.78513">
        <ele>0.20001220703125</ele>
        <time>2016-07-05T19:21:15Z</time>
      </trkpt>
      <trkpt lat="47.5684" lon="-2.78517">
        <ele>0.20001220703125</ele>
        <time>2016-07-05T19:21:25Z</time>
      </trkpt>
      <trkpt lat="47.56833" lon="-2.78523">
        <ele>0.79998779296875</ele>
        <time>2016-07-05T19:21:37Z</time>
      </trkpt>
      <trkpt lat="47.5682" lon="-2.78558">
        <ele>1.6000061035156</ele>
        <time>2016-07-05T19:22:20Z</time>
      </trkpt>
      <trkpt lat="47.56819" lon="-2.78564">
        <ele>1.3999938964844</ele>
        <time>2016-07-05T19:22:23Z</time>
      </trkpt>
      <trkpt lat="47.56812" lon="-2.78585">
        <ele>1</ele>
        <time>2016-07-05T19:22:35Z</time>
      </trkpt>
      <trkpt lat="47.56804" lon="-2.7861">
        <ele>1.2000122070312</ele>
        <time>2016-07-05T19:22:48Z</time>
      </trkpt>
      <trkpt lat="47.56803" lon="-2.78625">
        <ele>0.79998779296875</ele>
        <time>2016-07-05T19:22:58Z</time>
      </trkpt>
      <trkpt lat="47.568" lon="-2.78645">
        <ele>1</ele>
        <time>2016-07-05T19:23:11Z</time>
      </trkpt>
      <trkpt lat="47.56801" lon="-2.78662">
        <ele>1</ele>
        <time>2016-07-05T19:23:23Z</time>
      </trkpt>
      <trkpt lat="47.56801" lon="-2.78678">
        <ele>1</ele>
        <time>2016-07-05T19:23:31Z</time>
      </trkpt>
      <trkpt lat="47.56799" lon="-2.78699">
        <ele>1.6000061035156</ele>
        <time>2016-07-05T19:23:40Z</time>
      </trkpt>
      <trkpt lat="47.56797" lon="-2.78738">
        <ele>2.2000122070312</ele>
        <time>2016-07-05T19:23:54Z</time>
      </trkpt>
      <trkpt lat="47.56796" lon="-2.78758">
        <ele>2.6000061035156</ele>
        <time>2016-07-05T19:24:01Z</time>
      </trkpt>
      <trkpt lat="47.56796" lon="-2.7878">
        <ele>2.3999938964844</ele>
        <time>2016-07-05T19:24:09Z</time>
      </trkpt>
      <trkpt lat="47.56795" lon="-2.78819">
        <ele>2</ele>
        <time>2016-07-05T19:24:24Z</time>
      </trkpt>
      <trkpt lat="47.56793" lon="-2.78844">
        <ele>2.2000122070312</ele>
        <time>2016-07-05T19:24:35Z</time>
      </trkpt>
      <trkpt lat="47.56794" lon="-2.78859">
        <ele>1.7999877929688</ele>
        <time>2016-07-05T19:24:47Z</time>
      </trkpt>
      <trkpt lat="47.56794" lon="-2.78866">
        <ele>1.3999938964844</ele>
        <time>2016-07-05T19:24:55Z</time>
      </trkpt>
      <trkpt lat="47.56791" lon="-2.78894">
        <ele>2</ele>
        <time>2016-07-05T19:25:22Z</time>
      </trkpt>
      <trkpt lat="47.5679" lon="-2.78895">
        <ele>1.7999877929688</ele>
        <time>2016-07-05T19:25:23Z</time>
      </trkpt>
      <trkpt lat="47.56777" lon="-2.78912">
        <ele>1.6000061035156</ele>
        <time>2016-07-05T19:25:35Z</time>
      </trkpt>
      <trkpt lat="47.5677" lon="-2.78933">
        <ele>1.3999938964844</ele>
        <time>2016-07-05T19:25:46Z</time>
      </trkpt>
      <trkpt lat="47.56767" lon="-2.78955">
        <ele>1.3999938964844</ele>
        <time>2016-07-05T19:25:56Z</time>
      </trkpt>
      <trkpt lat="47.56766" lon="-2.78979">
        <ele>1.2000122070312</ele>
        <time>2016-07-05T19:26:07Z</time>
      </trkpt>
      <trkpt lat="47.56764" lon="-2.79002">
        <ele>1.2000122070312</ele>
        <time>2016-07-05T19:26:17Z</time>
      </trkpt>
      <trkpt lat="47.56763" lon="-2.79028">
        <ele>1.2000122070312</ele>
        <time>2016-07-05T19:26:27Z</time>
      </trkpt>
      <trkpt lat="47.56763" lon="-2.79058">
        <ele>1.2000122070312</ele>
        <time>2016-07-05T19:26:39Z</time>
      </trkpt>
      <trkpt lat="47.56765" lon="-2.79087">
        <ele>1.2000122070312</ele>
        <time>2016-07-05T19:26:49Z</time>
      </trkpt>
      <trkpt lat="47.56765" lon="-2.79124">
        <ele>1</ele>
        <time>2016-07-05T19:27:02Z</time>
      </trkpt>
      <trkpt lat="47.56768" lon="-2.79155">
        <ele>1.2000122070312</ele>
        <time>2016-07-05T19:27:12Z</time>
      </trkpt>
      <trkpt lat="47.56772" lon="-2.79192">
        <ele>0.79998779296875</ele>
        <time>2016-07-05T19:27:24Z</time>
      </trkpt>
      <trkpt lat="47.56776" lon="-2.79223">
        <ele>1.3999938964844</ele>
        <time>2016-07-05T19:27:34Z</time>
      </trkpt>
      <trkpt lat="47.56779" lon="-2.79255">
        <ele>1.7999877929688</ele>
        <time>2016-07-05T19:27:45Z</time>
      </trkpt>
      <trkpt lat="47.56784" lon="-2.79289">
        <ele>1.7999877929688</ele>
        <time>2016-07-05T19:27:58Z</time>
      </trkpt>
      <trkpt lat="47.56787" lon="-2.79327">
        <ele>1</ele>
        <time>2016-07-05T19:28:12Z</time>
      </trkpt>
      <trkpt lat="47.56787" lon="-2.79357">
        <ele>1.3999938964844</ele>
        <time>2016-07-05T19:28:23Z</time>
      </trkpt>
      <trkpt lat="47.56788" lon="-2.79387">
        <ele>0.79998779296875</ele>
        <time>2016-07-05T19:28:34Z</time>
      </trkpt>
      <trkpt lat="47.56789" lon="-2.79424">
        <ele>1.3999938964844</ele>
        <time>2016-07-05T19:28:48Z</time>
      </trkpt>
      <trkpt lat="47.56788" lon="-2.79448">
        <ele>0.79998779296875</ele>
        <time>2016-07-05T19:28:58Z</time>
      </trkpt>
      <trkpt lat="47.56786" lon="-2.79473">
        <ele>1</ele>
        <time>2016-07-05T19:29:09Z</time>
      </trkpt>
      <trkpt lat="47.56784" lon="-2.79491">
        <ele>0.79998779296875</ele>
        <time>2016-07-05T19:29:18Z</time>
      </trkpt>
      <trkpt lat="47.56779" lon="-2.79496">
        <ele>1.2000122070312</ele>
        <time>2016-07-05T19:29:26Z</time>
      </trkpt>
      <trkpt lat="47.56775" lon="-2.79498">
        <ele>1</ele>
        <time>2016-07-05T19:29:33Z</time>
      </trkpt>
      <trkpt lat="47.56758" lon="-2.79495">
        <ele>1.6000061035156</ele>
        <time>2016-07-05T19:30:11Z</time>
      </trkpt>
      <trkpt lat="47.56755" lon="-2.79499">
        <ele>1.6000061035156</ele>
        <time>2016-07-05T19:30:14Z</time>
      </trkpt>
      <trkpt lat="47.56746" lon="-2.79511">
        <ele>1.3999938964844</ele>
        <time>2016-07-05T19:30:23Z</time>
      </trkpt>
      <trkpt lat="47.56741" lon="-2.79524">
        <ele>1.7999877929688</ele>
        <time>2016-07-05T19:30:33Z</time>
      </trkpt>
      <trkpt lat="47.56737" lon="-2.79538">
        <ele>1.2000122070312</ele>
        <time>2016-07-05T19:30:45Z</time>
      </trkpt>
      <trkpt lat="47.56734" lon="-2.79551">
        <ele>1</ele>
        <time>2016-07-05T19:30:55Z</time>
      </trkpt>
      <trkpt lat="47.56729" lon="-2.79563">
        <ele>1.3999938964844</ele>
        <time>2016-07-05T19:31:04Z</time>
      </trkpt>
      <trkpt lat="47.56721" lon="-2.7958">
        <ele>1</ele>
        <time>2016-07-05T19:31:14Z</time>
      </trkpt>
      <trkpt lat="47.56712" lon="-2.79603">
        <ele>1.2000122070312</ele>
        <time>2016-07-05T19:31:27Z</time>
      </trkpt>
      <trkpt lat="47.56706" lon="-2.79615">
        <ele>1</ele>
        <time>2016-07-05T19:31:34Z</time>
      </trkpt>
      <trkpt lat="47.56699" lon="-2.79632">
        <ele>1.3999938964844</ele>
        <time>2016-07-05T19:31:45Z</time>
      </trkpt>
      <trkpt lat="47.5669" lon="-2.7965">
        <ele>1.3999938964844</ele>
        <time>2016-07-05T19:31:58Z</time>
      </trkpt>
      <trkpt lat="47.56684" lon="-2.79667">
        <ele>1.3999938964844</ele>
        <time>2016-07-05T19:32:10Z</time>
      </trkpt>
      <trkpt lat="47.56679" lon="-2.79674">
        <ele>1.3999938964844</ele>
        <time>2016-07-05T19:32:19Z</time>
      </trkpt>
      <trkpt lat="47.56671" lon="-2.79675">
        <ele>1.7999877929688</ele>
        <time>2016-07-05T19:32:28Z</time>
      </trkpt>
      <trkpt lat="47.56664" lon="-2.79684">
        <ele>2</ele>
        <time>2016-07-05T19:32:37Z</time>
      </trkpt>
      <trkpt lat="47.56659" lon="-2.79701">
        <ele>1</ele>
        <time>2016-07-05T19:32:46Z</time>
      </trkpt>
      <trkpt lat="47.56651" lon="-2.7972">
        <ele>0.79998779296875</ele>
        <time>2016-07-05T19:32:56Z</time>
      </trkpt>
      <trkpt lat="47.56644" lon="-2.79742">
        <ele>1.2000122070312</ele>
        <time>2016-07-05T19:33:06Z</time>
      </trkpt>
      <trkpt lat="47.5664" lon="-2.79766">
        <ele>1.3999938964844</ele>
        <time>2016-07-05T19:33:15Z</time>
      </trkpt>
      <trkpt lat="47.56634" lon="-2.79786">
        <ele>1.3999938964844</ele>
        <time>2016-07-05T19:33:24Z</time>
      </trkpt>
      <trkpt lat="47.56625" lon="-2.79809">
        <ele>1.6000061035156</ele>
        <time>2016-07-05T19:33:35Z</time>
      </trkpt>
      <trkpt lat="47.56618" lon="-2.79828">
        <ele>1.7999877929688</ele>
        <time>2016-07-05T19:33:45Z</time>
      </trkpt>
      <trkpt lat="47.56611" lon="-2.79845">
        <ele>2.3999938964844</ele>
        <time>2016-07-05T19:33:56Z</time>
      </trkpt>
      <trkpt lat="47.5661" lon="-2.79846">
        <ele>2.3999938964844</ele>
        <time>2016-07-05T19:33:57Z</time>
      </trkpt>
      <trkpt lat="47.56604" lon="-2.79859">
        <ele>2.3999938964844</ele>
        <time>2016-07-05T19:34:07Z</time>
      </trkpt>
      <trkpt lat="47.56595" lon="-2.79875">
        <ele>2</ele>
        <time>2016-07-05T19:34:18Z</time>
      </trkpt>
      <trkpt lat="47.56589" lon="-2.79889">
        <ele>2.6000061035156</ele>
        <time>2016-07-05T19:34:27Z</time>
      </trkpt>
      <trkpt lat="47.56582" lon="-2.79902">
        <ele>2.2000122070312</ele>
        <time>2016-07-05T19:34:36Z</time>
      </trkpt>
      <trkpt lat="47.56574" lon="-2.79919">
        <ele>2</ele>
        <time>2016-07-05T19:34:47Z</time>
      </trkpt>
      <trkpt lat="47.56568" lon="-2.79935">
        <ele>1.6000061035156</ele>
        <time>2016-07-05T19:34:58Z</time>
      </trkpt>
      <trkpt lat="47.56566" lon="-2.79938">
        <ele>1.3999938964844</ele>
        <time>2016-07-05T19:35:01Z</time>
      </trkpt>
      <trkpt lat="47.56557" lon="-2.79957">
        <ele>1</ele>
        <time>2016-07-05T19:35:13Z</time>
      </trkpt>
      <trkpt lat="47.56549" lon="-2.79971">
        <ele>0.60000610351562</ele>
        <time>2016-07-05T19:35:23Z</time>
      </trkpt>
      <trkpt lat="47.5654" lon="-2.79989">
        <ele>0.79998779296875</ele>
        <time>2016-07-05T19:35:35Z</time>
      </trkpt>
      <trkpt lat="47.56533" lon="-2.80004">
        <ele>1</ele>
        <time>2016-07-05T19:35:47Z</time>
      </trkpt>
      <trkpt lat="47.56525" lon="-2.80017">
        <ele>1</ele>
        <time>2016-07-05T19:35:58Z</time>
      </trkpt>
      <trkpt lat="47.56516" lon="-2.80031">
        <ele>0.39999389648438</ele>
        <time>2016-07-05T19:36:11Z</time>
      </trkpt>
      <trkpt lat="47.56509" lon="-2.80045">
        <ele>0.20001220703125</ele>
        <time>2016-07-05T19:36:22Z</time>
      </trkpt>
      <trkpt lat="47.565" lon="-2.80061">
        <ele>0.20001220703125</ele>
        <time>2016-07-05T19:36:36Z</time>
      </trkpt>
      <trkpt lat="47.56493" lon="-2.80076">
        <ele>0.20001220703125</ele>
        <time>2016-07-05T19:36:49Z</time>
      </trkpt>
      <trkpt lat="47.56485" lon="-2.80093">
        <ele>0.20001220703125</ele>
        <time>2016-07-05T19:37:02Z</time>
      </trkpt>
      <trkpt lat="47.56477" lon="-2.8011">
        <ele>0.60000610351562</ele>
        <time>2016-07-05T19:37:15Z</time>
      </trkpt>
      <trkpt lat="47.56467" lon="-2.80122">
        <ele>0.39999389648438</ele>
        <time>2016-07-05T19:37:28Z</time>
      </trkpt>
      <trkpt lat="47.56461" lon="-2.80131">
        <ele>0.60000610351562</ele>
        <time>2016-07-05T19:37:37Z</time>
      </trkpt>
      <trkpt lat="47.56451" lon="-2.80141">
        <ele>1.3999938964844</ele>
        <time>2016-07-05T19:37:49Z</time>
      </trkpt>
      <trkpt lat="47.56447" lon="-2.80145">
        <ele>1.3999938964844</ele>
        <time>2016-07-05T19:37:53Z</time>
      </trkpt>
      <trkpt lat="47.5644" lon="-2.80154">
        <ele>1.7999877929688</ele>
        <time>2016-07-05T19:38:01Z</time>
      </trkpt>
      <trkpt lat="47.5643" lon="-2.80167">
        <ele>2</ele>
        <time>2016-07-05T19:38:14Z</time>
      </trkpt>
      <trkpt lat="47.56423" lon="-2.80179">
        <ele>0.39999389648438</ele>
        <time>2016-07-05T19:38:27Z</time>
      </trkpt>
      <trkpt lat="47.56423" lon="-2.8018">
        <ele>0.60000610351562</ele>
        <time>2016-07-05T19:38:28Z</time>
      </trkpt>
      <trkpt lat="47.56413" lon="-2.80189">
        <ele>1</ele>
        <time>2016-07-05T19:38:41Z</time>
      </trkpt>
      <trkpt lat="47.56403" lon="-2.80199">
        <ele>1</ele>
        <time>2016-07-05T19:38:54Z</time>
      </trkpt>
      <trkpt lat="47.56394" lon="-2.80205">
        <ele>1</ele>
        <time>2016-07-05T19:39:05Z</time>
      </trkpt>
      <trkpt lat="47.56388" lon="-2.80212">
        <ele>1.6000061035156</ele>
        <time>2016-07-05T19:39:13Z</time>
      </trkpt>
      <trkpt lat="47.56382" lon="-2.80217">
        <ele>1.3999938964844</ele>
        <time>2016-07-05T19:39:19Z</time>
      </trkpt>
      <trkpt lat="47.56372" lon="-2.80224">
        <ele>1.6000061035156</ele>
        <time>2016-07-05T19:39:31Z</time>
      </trkpt>
      <trkpt lat="47.56362" lon="-2.80228">
        <ele>1.6000061035156</ele>
        <time>2016-07-05T19:39:42Z</time>
      </trkpt>
      <trkpt lat="47.56349" lon="-2.80236">
        <ele>1.3999938964844</ele>
        <time>2016-07-05T19:39:56Z</time>
      </trkpt>
      <trkpt lat="47.56337" lon="-2.80248">
        <ele>1.7999877929688</ele>
        <time>2016-07-05T19:40:10Z</time>
      </trkpt>
      <trkpt lat="47.56321" lon="-2.8026">
        <ele>1.7999877929688</ele>
        <time>2016-07-05T19:40:23Z</time>
      </trkpt>
      <trkpt lat="47.56304" lon="-2.80268">
        <ele>1.7999877929688</ele>
        <time>2016-07-05T19:40:34Z</time>
      </trkpt>
      <trkpt lat="47.56286" lon="-2.80277">
        <ele>1.6000061035156</ele>
        <time>2016-07-05T19:40:46Z</time>
      </trkpt>
      <trkpt lat="47.56267" lon="-2.80287">
        <ele>1.6000061035156</ele>
        <time>2016-07-05T19:40:59Z</time>
      </trkpt>
      <trkpt lat="47.56253" lon="-2.80294">
        <ele>1.7999877929688</ele>
        <time>2016-07-05T19:41:09Z</time>
      </trkpt>
      <trkpt lat="47.56232" lon="-2.803">
        <ele>1.3999938964844</ele>
        <time>2016-07-05T19:41:22Z</time>
      </trkpt>
      <trkpt lat="47.5621" lon="-2.80306">
        <ele>2</ele>
        <time>2016-07-05T19:41:36Z</time>
      </trkpt>
      <trkpt lat="47.5619" lon="-2.80307">
        <ele>2.3999938964844</ele>
        <time>2016-07-05T19:41:48Z</time>
      </trkpt>
      <trkpt lat="47.56168" lon="-2.8031">
        <ele>2</ele>
        <time>2016-07-05T19:42:02Z</time>
      </trkpt>
      <trkpt lat="47.56153" lon="-2.80311">
        <ele>2.3999938964844</ele>
        <time>2016-07-05T19:42:13Z</time>
      </trkpt>
      <trkpt lat="47.56145" lon="-2.80306">
        <ele>2</ele>
        <time>2016-07-05T19:42:23Z</time>
      </trkpt>
      <trkpt lat="47.56135" lon="-2.80297">
        <ele>1.7999877929688</ele>
        <time>2016-07-05T19:42:37Z</time>
      </trkpt>
      <trkpt lat="47.56126" lon="-2.80299">
        <ele>2</ele>
        <time>2016-07-05T19:42:46Z</time>
      </trkpt>
      <trkpt lat="47.56116" lon="-2.80308">
        <ele>2.2000122070312</ele>
        <time>2016-07-05T19:42:57Z</time>
      </trkpt>
      <trkpt lat="47.56109" lon="-2.8031">
        <ele>1.7999877929688</ele>
        <time>2016-07-05T19:43:08Z</time>
      </trkpt>
      <trkpt lat="47.56085" lon="-2.80326">
        <ele>1.3999938964844</ele>
        <time>2016-07-05T19:43:48Z</time>
      </trkpt>
      <trkpt lat="47.56082" lon="-2.80329">
        <ele>1.3999938964844</ele>
        <time>2016-07-05T19:43:51Z</time>
      </trkpt>
      <trkpt lat="47.56065" lon="-2.80346">
        <ele>0.79998779296875</ele>
        <time>2016-07-05T19:44:06Z</time>
      </trkpt>
      <trkpt lat="47.56048" lon="-2.80367">
        <ele>1.2000122070312</ele>
        <time>2016-07-05T19:44:19Z</time>
      </trkpt>
      <trkpt lat="47.56034" lon="-2.80385">
        <ele>0.79998779296875</ele>
        <time>2016-07-05T19:44:31Z</time>
      </trkpt>
      <trkpt lat="47.56023" lon="-2.80401">
        <ele>1</ele>
        <time>2016-07-05T19:44:42Z</time>
      </trkpt>
      <trkpt lat="47.56009" lon="-2.80422">
        <ele>0.39999389648438</ele>
        <time>2016-07-05T19:44:54Z</time>
      </trkpt>
      <trkpt lat="47.55997" lon="-2.80437">
        <ele>1</ele>
        <time>2016-07-05T19:45:07Z</time>
      </trkpt>
      <trkpt lat="47.55988" lon="-2.80449">
        <ele>1.2000122070312</ele>
        <time>2016-07-05T19:45:19Z</time>
      </trkpt>
      <trkpt lat="47.55979" lon="-2.80466">
        <ele>0.79998779296875</ele>
        <time>2016-07-05T19:45:30Z</time>
      </trkpt>
      <trkpt lat="47.5597" lon="-2.80482">
        <ele>0.60000610351562</ele>
        <time>2016-07-05T19:45:41Z</time>
      </trkpt>
      <trkpt lat="47.55963" lon="-2.80494">
        <ele>0.39999389648438</ele>
        <time>2016-07-05T19:45:50Z</time>
      </trkpt>
      <trkpt lat="47.55954" lon="-2.8051">
        <ele>0.20001220703125</ele>
        <time>2016-07-05T19:46:00Z</time>
      </trkpt>
      <trkpt lat="47.55945" lon="-2.8053">
        <ele>-0.39999389648438</ele>
        <time>2016-07-05T19:46:11Z</time>
      </trkpt>
      <trkpt lat="47.55939" lon="-2.80547">
        <ele>-0.20001220703125</ele>
        <time>2016-07-05T19:46:21Z</time>
      </trkpt>
      <trkpt lat="47.55932" lon="-2.80566">
        <time>2016-07-05T19:46:31Z</time>
      </trkpt>
      <trkpt lat="47.55924" lon="-2.80585">
        <time>2016-07-05T19:46:41Z</time>
      </trkpt>
      <trkpt lat="47.55916" lon="-2.80608">
        <ele>0.20001220703125</ele>
        <time>2016-07-05T19:46:52Z</time>
      </trkpt>
      <trkpt lat="47.55911" lon="-2.8062">
        <ele>0.20001220703125</ele>
        <time>2016-07-05T19:47:00Z</time>
      </trkpt>
      <trkpt lat="47.55905" lon="-2.80637">
        <ele>-0.39999389648438</ele>
        <time>2016-07-05T19:47:10Z</time>
      </trkpt>
      <trkpt lat="47.55903" lon="-2.80643">
        <ele>-0.60000610351562</ele>
        <time>2016-07-05T19:47:14Z</time>
      </trkpt>
      <trkpt lat="47.55899" lon="-2.80652">
        <ele>-0.39999389648438</ele>
        <time>2016-07-05T19:47:19Z</time>
      </trkpt>
      <trkpt lat="47.55892" lon="-2.8067">
        <ele>-0.20001220703125</ele>
        <time>2016-07-05T19:47:29Z</time>
      </trkpt>
      <trkpt lat="47.55883" lon="-2.80693">
        <ele>-0.39999389648438</ele>
        <time>2016-07-05T19:47:40Z</time>
      </trkpt>
      <trkpt lat="47.55875" lon="-2.80712">
        <ele>-0.20001220703125</ele>
        <time>2016-07-05T19:47:49Z</time>
      </trkpt>
      <trkpt lat="47.55866" lon="-2.80736">
        <ele>-0.60000610351562</ele>
        <time>2016-07-05T19:48:00Z</time>
      </trkpt>
      <trkpt lat="47.55855" lon="-2.80766">
        <ele>-0.79998779296875</ele>
        <time>2016-07-05T19:48:13Z</time>
      </trkpt>
      <trkpt lat="47.55848" lon="-2.80788">
        <ele>-1</ele>
        <time>2016-07-05T19:48:22Z</time>
      </trkpt>
      <trkpt lat="47.55842" lon="-2.80806">
        <ele>-0.79998779296875</ele>
        <time>2016-07-05T19:48:30Z</time>
      </trkpt>
      <trkpt lat="47.55836" lon="-2.80819">
        <ele>-0.39999389648438</ele>
        <time>2016-07-05T19:48:37Z</time>
      </trkpt>
      <trkpt lat="47.55828" lon="-2.80833">
        <ele>-0.60000610351562</ele>
        <time>2016-07-05T19:48:47Z</time>
      </trkpt>
      <trkpt lat="47.55825" lon="-2.80841">
        <ele>-0.20001220703125</ele>
        <time>2016-07-05T19:48:56Z</time>
      </trkpt>
      <trkpt lat="47.55822" lon="-2.80847">
        <ele>0.39999389648438</ele>
        <time>2016-07-05T19:49:05Z</time>
      </trkpt>
      <trkpt lat="47.55822" lon="-2.80848">
        <ele>0.39999389648438</ele>
        <time>2016-07-05T19:49:06Z</time>
      </trkpt>
      <trkpt lat="47.55817" lon="-2.80858">
        <ele>0.39999389648438</ele>
        <time>2016-07-05T19:49:14Z</time>
      </trkpt>
      <trkpt lat="47.55809" lon="-2.80869">
        <time>2016-07-05T19:49:23Z</time>
      </trkpt>
      <trkpt lat="47.55802" lon="-2.80881">
        <ele>0.20001220703125</ele>
        <time>2016-07-05T19:49:32Z</time>
      </trkpt>
      <trkpt lat="47.55794" lon="-2.80893">
        <ele>0.20001220703125</ele>
        <time>2016-07-05T19:49:43Z</time>
      </trkpt>
      <trkpt lat="47.55788" lon="-2.80902">
        <ele>0.39999389648438</ele>
        <time>2016-07-05T19:49:52Z</time>
      </trkpt>
      <trkpt lat="47.5578" lon="-2.80915">
        <ele>0.39999389648438</ele>
        <time>2016-07-05T19:50:04Z</time>
      </trkpt>
      <trkpt lat="47.5577" lon="-2.80927">
        <ele>0.60000610351562</ele>
        <time>2016-07-05T19:50:16Z</time>
      </trkpt>
      <trkpt lat="47.55761" lon="-2.80941">
        <ele>1.3999938964844</ele>
        <time>2016-07-05T19:50:27Z</time>
      </trkpt>
      <trkpt lat="47.55754" lon="-2.80953">
        <ele>0.79998779296875</ele>
        <time>2016-07-05T19:50:37Z</time>
      </trkpt>
      <trkpt lat="47.55748" lon="-2.8096">
        <ele>0.60000610351562</ele>
        <time>2016-07-05T19:50:45Z</time>
      </trkpt>
      <trkpt lat="47.55739" lon="-2.80971">
        <ele>0.39999389648438</ele>
        <time>2016-07-05T19:50:56Z</time>
      </trkpt>
      <trkpt lat="47.55727" lon="-2.80982">
        <ele>1</ele>
        <time>2016-07-05T19:51:07Z</time>
      </trkpt>
      <trkpt lat="47.5572" lon="-2.80989">
        <ele>0.79998779296875</ele>
        <time>2016-07-05T19:51:16Z</time>
      </trkpt>
      <trkpt lat="47.55712" lon="-2.80994">
        <ele>1.2000122070312</ele>
        <time>2016-07-05T19:51:25Z</time>
      </trkpt>
      <trkpt lat="47.55704" lon="-2.81">
        <ele>1.6000061035156</ele>
        <time>2016-07-05T19:51:32Z</time>
      </trkpt>
      <trkpt lat="47.55701" lon="-2.81003">
        <ele>1.7999877929688</ele>
        <time>2016-07-05T19:51:35Z</time>
      </trkpt>
      <trkpt lat="47.55691" lon="-2.81009">
        <ele>2.2000122070312</ele>
        <time>2016-07-05T19:51:44Z</time>
      </trkpt>
      <trkpt lat="47.5568" lon="-2.81016">
        <ele>2.2000122070312</ele>
        <time>2016-07-05T19:51:55Z</time>
      </trkpt>
      <trkpt lat="47.55667" lon="-2.81024">
        <ele>2.7999877929688</ele>
        <time>2016-07-05T19:52:07Z</time>
      </trkpt>
      <trkpt lat="47.55659" lon="-2.81029">
        <ele>2.2000122070312</ele>
        <time>2016-07-05T19:52:16Z</time>
      </trkpt>
      <trkpt lat="47.55652" lon="-2.81036">
        <ele>2.2000122070312</ele>
        <time>2016-07-05T19:52:27Z</time>
      </trkpt>
      <trkpt lat="47.55641" lon="-2.8104">
        <ele>2.6000061035156</ele>
        <time>2016-07-05T19:52:39Z</time>
      </trkpt>
      <trkpt lat="47.55629" lon="-2.81045">
        <ele>2.6000061035156</ele>
        <time>2016-07-05T19:52:51Z</time>
      </trkpt>
      <trkpt lat="47.5562" lon="-2.81049">
        <ele>2.2000122070312</ele>
        <time>2016-07-05T19:53:00Z</time>
      </trkpt>
      <trkpt lat="47.55611" lon="-2.81053">
        <ele>2.2000122070312</ele>
        <time>2016-07-05T19:53:09Z</time>
      </trkpt>
      <trkpt lat="47.55601" lon="-2.81057">
        <ele>2.2000122070312</ele>
        <time>2016-07-05T19:53:19Z</time>
      </trkpt>
      <trkpt lat="47.55591" lon="-2.81063">
        <ele>2</ele>
        <time>2016-07-05T19:53:27Z</time>
      </trkpt>
      <trkpt lat="47.55577" lon="-2.81069">
        <ele>2.3999938964844</ele>
        <time>2016-07-05T19:53:37Z</time>
      </trkpt>
      <trkpt lat="47.55565" lon="-2.81075">
        <ele>2.6000061035156</ele>
        <time>2016-07-05T19:53:47Z</time>
      </trkpt>
      <trkpt lat="47.5555" lon="-2.81082">
        <ele>2.2000122070312</ele>
        <time>2016-07-05T19:53:58Z</time>
      </trkpt>
      <trkpt lat="47.55538" lon="-2.81089">
        <ele>2.2000122070312</ele>
        <time>2016-07-05T19:54:07Z</time>
      </trkpt>
      <trkpt lat="47.55525" lon="-2.81095">
        <ele>2</ele>
        <time>2016-07-05T19:54:17Z</time>
      </trkpt>
      <trkpt lat="47.55517" lon="-2.811">
        <ele>1.7999877929688</ele>
        <time>2016-07-05T19:54:23Z</time>
      </trkpt>
      <trkpt lat="47.55506" lon="-2.81105">
        <ele>2</ele>
        <time>2016-07-05T19:54:31Z</time>
      </trkpt>
      <trkpt lat="47.55488" lon="-2.81112">
        <ele>2</ele>
        <time>2016-07-05T19:54:44Z</time>
      </trkpt>
      <trkpt lat="47.55478" lon="-2.81116">
        <ele>2.3999938964844</ele>
        <time>2016-07-05T19:54:52Z</time>
      </trkpt>
      <trkpt lat="47.55468" lon="-2.81124">
        <ele>2.7999877929688</ele>
        <time>2016-07-05T19:55:01Z</time>
      </trkpt>
      <trkpt lat="47.55465" lon="-2.81126">
        <ele>2.6000061035156</ele>
        <time>2016-07-05T19:55:03Z</time>
      </trkpt>
      <trkpt lat="47.55454" lon="-2.81135">
        <ele>2</ele>
        <time>2016-07-05T19:55:13Z</time>
      </trkpt>
      <trkpt lat="47.5545" lon="-2.81137">
        <ele>1.7999877929688</ele>
        <time>2016-07-05T19:55:16Z</time>
      </trkpt>
      <trkpt lat="47.55441" lon="-2.81139">
        <ele>1.7999877929688</ele>
        <time>2016-07-05T19:55:22Z</time>
      </trkpt>
      <trkpt lat="47.55426" lon="-2.81143">
        <ele>1.6000061035156</ele>
        <time>2016-07-05T19:55:32Z</time>
      </trkpt>
      <trkpt lat="47.55416" lon="-2.81146">
        <ele>1</ele>
        <time>2016-07-05T19:55:40Z</time>
      </trkpt>
      <trkpt lat="47.55405" lon="-2.81149">
        <ele>1</ele>
        <time>2016-07-05T19:55:49Z</time>
      </trkpt>
      <trkpt lat="47.55392" lon="-2.81151">
        <ele>1.2000122070312</ele>
        <time>2016-07-05T19:55:59Z</time>
      </trkpt>
      <trkpt lat="47.55383" lon="-2.81153">
        <ele>1.6000061035156</ele>
        <time>2016-07-05T19:56:06Z</time>
      </trkpt>
      <trkpt lat="47.5537" lon="-2.81156">
        <ele>1.6000061035156</ele>
        <time>2016-07-05T19:56:16Z</time>
      </trkpt>
      <trkpt lat="47.55358" lon="-2.81158">
        <ele>1.3999938964844</ele>
        <time>2016-07-05T19:56:25Z</time>
      </trkpt>
      <trkpt lat="47.55345" lon="-2.81161">
        <ele>0.79998779296875</ele>
        <time>2016-07-05T19:56:34Z</time>
      </trkpt>
      <trkpt lat="47.55317" lon="-2.81173">
        <ele>2.6000061035156</ele>
        <time>2016-07-05T20:06:36Z</time>
      </trkpt>
      <trkpt lat="47.55317" lon="-2.8119">
        <ele>3</ele>
        <time>2016-07-05T20:06:46Z</time>
      </trkpt>
      <trkpt lat="47.55309" lon="-2.81194">
        <ele>2.7999877929688</ele>
        <time>2016-07-05T20:06:53Z</time>
      </trkpt>
      <trkpt lat="47.55303" lon="-2.81193">
        <ele>3.7999877929688</ele>
        <time>2016-07-05T20:06:57Z</time>
      </trkpt>
      <trkpt lat="47.55297" lon="-2.81192">
        <ele>4.3999938964844</ele>
        <time>2016-07-05T20:07:02Z</time>
      </trkpt>
      <trkpt lat="47.55295" lon="-2.81192">
        <ele>4.7999877929688</ele>
        <time>2016-07-05T20:07:04Z</time>
      </trkpt>
      <trkpt lat="47.55286" lon="-2.8119">
        <ele>5</ele>
        <time>2016-07-05T20:07:11Z</time>
      </trkpt>
      <trkpt lat="47.55277" lon="-2.81191">
        <ele>5.3999938964844</ele>
        <time>2016-07-05T20:07:20Z</time>
      </trkpt>
      <trkpt lat="47.55271" lon="-2.81187">
        <ele>5.7999877929688</ele>
        <time>2016-07-05T20:07:26Z</time>
      </trkpt>
      <trkpt lat="47.5527" lon="-2.81186">
        <ele>6</ele>
        <time>2016-07-05T20:07:27Z</time>
      </trkpt>
      <trkpt lat="47.5527" lon="-2.81184">
        <ele>6</ele>
        <time>2016-07-05T20:07:28Z</time>
      </trkpt>
      <trkpt lat="47.5527" lon="-2.8117">
        <ele>6.3999938964844</ele>
        <time>2016-07-05T20:07:36Z</time>
      </trkpt>
      <trkpt lat="47.5527" lon="-2.81168">
        <ele>6.6000061035156</ele>
        <time>2016-07-05T20:07:37Z</time>
      </trkpt>
      <trkpt lat="47.55269" lon="-2.81164">
        <ele>7</ele>
        <time>2016-07-05T20:07:39Z</time>
      </trkpt>
      <trkpt lat="47.55269" lon="-2.81158">
        <ele>7.6000061035156</ele>
        <time>2016-07-05T20:07:42Z</time>
      </trkpt>
      <trkpt lat="47.55269" lon="-2.81146">
        <ele>8.2000122070312</ele>
        <time>2016-07-05T20:07:49Z</time>
      </trkpt>
      <trkpt lat="47.55269" lon="-2.81144">
        <ele>8.2000122070312</ele>
        <time>2016-07-05T20:07:50Z</time>
      </trkpt>
    </trkseg>
  </trk>
</gpx>